KLM713 EHAM-SMJP
Flight info
| Callsign | KLM713 |
|---|---|
| Flight time | 9h 18m |
| Altitude | 32000 |
| Route | IDRID L980 LOGAN DCT SAM N19 ADKIK DCT JOZMA DCT GAPLI/M084F340 DCT OMOKO DCT 45N020W 38N030W 33N035W 28N040W/M084F360 24N045W DCT NEZBT/N0492F360 DCT 16N050W 0927N05300W 0730N05400W DCT TODOL |
| Aircraft | B77W/H-SDE1E2E3FGHIJ2J3J4J5M1RWXY/LB1D1 |
Departure
| Time | 2026-04-27 08:00 |
|---|---|
| Airport | Amsterdam Airport Schiphol (EHAM) |
Arrival
| Time | 2026-04-27 17:19 |
|---|---|
| Airport | Johan Adolf Pengel International Airport (SMJP) |
| Time | Latitude | Longitude | Altitude | Speed | Heading |
|---|---|---|---|---|---|
| 2026-04-27 07:22 | 52.31379 | 4.76291 | 4 ft | 0 kts | 206° |
| 2026-04-27 07:50 | 52.31380 | 4.76291 | 4 ft | 1 kts | 206° |
| 2026-04-27 07:51 | 52.31394 | 4.76303 | 4 ft | 2 kts | 206° |
| 2026-04-27 07:51 | 52.31409 | 4.76315 | 5 ft | 2 kts | 206° |
| 2026-04-27 07:51 | 52.31419 | 4.76323 | 6 ft | 2 kts | 206° |
| 2026-04-27 07:51 | 52.31437 | 4.76337 | 5 ft | 2 kts | 206° |
| 2026-04-27 07:52 | 52.31451 | 4.76350 | 6 ft | 2 kts | 222° |
| 2026-04-27 07:52 | 52.31457 | 4.76373 | 6 ft | 2 kts | 268° |
| 2026-04-27 07:52 | 52.31458 | 4.76384 | 6 ft | 0 kts | 268° |
| 2026-04-27 07:55 | 52.31458 | 4.76380 | 4 ft | 2 kts | 268° |
| 2026-04-27 07:55 | 52.31456 | 4.76310 | 4 ft | 11 kts | 268° |
| 2026-04-27 07:55 | 52.31453 | 4.76143 | 4 ft | 15 kts | 268° |
| 2026-04-27 07:55 | 52.31450 | 4.76046 | 4 ft | 15 kts | 268° |
| 2026-04-27 07:56 | 52.31452 | 4.75855 | 4 ft | 13 kts | 293° |
| 2026-04-27 07:56 | 52.31509 | 4.75742 | 4 ft | 14 kts | 284° |
| 2026-04-27 07:56 | 52.31513 | 4.75550 | 4 ft | 20 kts | 266° |
| 2026-04-27 07:56 | 52.31505 | 4.75281 | 3 ft | 27 kts | 267° |
| 2026-04-27 07:57 | 52.31498 | 4.75065 | 4 ft | 13 kts | 267° |
| 2026-04-27 07:57 | 52.31494 | 4.74918 | 4 ft | 13 kts | 267° |
| 2026-04-27 07:57 | 52.31490 | 4.74769 | 4 ft | 13 kts | 268° |
| 2026-04-27 07:57 | 52.31547 | 4.74674 | 4 ft | 13 kts | 347° |
| 2026-04-27 07:58 | 52.31635 | 4.74687 | 4 ft | 13 kts | 23° |
| 2026-04-27 07:58 | 52.31668 | 4.74769 | 4 ft | 0 kts | 88° |
| 2026-04-27 07:58 | 52.31668 | 4.74770 | 4 ft | 0 kts | 88° |
| 2026-04-27 07:59 | 52.31669 | 4.74797 | 4 ft | 15 kts | 88° |
| 2026-04-27 07:59 | 52.31690 | 4.75379 | 1 ft | 87 kts | 86° |
| 2026-04-27 08:00 | 52.31737 | 4.76725 | 3 ft | 149 kts | 86° |
| 2026-04-27 08:00 | 52.31809 | 4.78713 | 37 ft | 192 kts | 86° |
| 2026-04-27 08:00 | 52.31875 | 4.80941 | 538 ft | 192 kts | 86° |
| 2026-04-27 08:00 | 52.31954 | 4.83013 | 1426 ft | 181 kts | 82° |
| 2026-04-27 08:01 | 52.32454 | 4.84984 | 1623 ft | 200 kts | 42° |
| 2026-04-27 08:01 | 52.33761 | 4.85841 | 1833 ft | 217 kts | 359° |
| 2026-04-27 08:01 | 52.35219 | 4.84985 | 1947 ft | 242 kts | 317° |
| 2026-04-27 08:01 | 52.36154 | 4.82709 | 2355 ft | 249 kts | 297° |
| 2026-04-27 08:02 | 52.37172 | 4.80373 | 2761 ft | 255 kts | 325° |
| 2026-04-27 08:02 | 52.38720 | 4.78979 | 3383 ft | 252 kts | 335° |
| 2026-04-27 08:02 | 52.40165 | 4.77379 | 3795 ft | 262 kts | 311° |
| 2026-04-27 08:02 | 52.41204 | 4.74908 | 4549 ft | 258 kts | 307° |
| 2026-04-27 08:03 | 52.42436 | 4.72800 | 5100 ft | 259 kts | 321° |
| 2026-04-27 08:03 | 52.43795 | 4.70811 | 5605 ft | 266 kts | 316° |
| 2026-04-27 08:03 | 52.45104 | 4.68675 | 6299 ft | 265 kts | 315° |
| 2026-04-27 08:03 | 52.46303 | 4.66359 | 6805 ft | 269 kts | 298° |
| 2026-04-27 08:04 | 52.46719 | 4.63348 | 7235 ft | 272 kts | 267° |
| 2026-04-27 08:04 | 52.46608 | 4.60268 | 7740 ft | 274 kts | 270° |
| 2026-04-27 08:04 | 52.46635 | 4.57062 | 8339 ft | 274 kts | 272° |
| 2026-04-27 08:04 | 52.46415 | 4.53990 | 8816 ft | 276 kts | 248° |
| 2026-04-27 08:05 | 52.45360 | 4.51414 | 9239 ft | 280 kts | 231° |
| 2026-04-27 08:05 | 52.44244 | 4.48755 | 9610 ft | 285 kts | 243° |
| 2026-04-27 08:05 | 52.43341 | 4.45864 | 10297 ft | 283 kts | 245° |
| 2026-04-27 08:05 | 52.42458 | 4.42913 | 10800 ft | 289 kts | 245° |
| 2026-04-27 08:06 | 52.41533 | 4.39882 | 10948 ft | 310 kts | 244° |
| 2026-04-27 08:06 | 52.40493 | 4.36567 | 11128 ft | 330 kts | 243° |
| 2026-04-27 08:06 | 52.39405 | 4.33176 | 11310 ft | 350 kts | 243° |
| 2026-04-27 08:06 | 52.38216 | 4.29541 | 11732 ft | 362 kts | 242° |
| 2026-04-27 08:07 | 52.37114 | 4.26215 | 12317 ft | 368 kts | 242° |
| 2026-04-27 08:07 | 52.35995 | 4.22865 | 13065 ft | 371 kts | 242° |
| 2026-04-27 08:07 | 52.34751 | 4.19165 | 13950 ft | 372 kts | 242° |
| 2026-04-27 08:07 | 52.33473 | 4.15380 | 14740 ft | 375 kts | 242° |
| 2026-04-27 08:08 | 52.32221 | 4.11683 | 15422 ft | 379 kts | 242° |
| 2026-04-27 08:08 | 52.30914 | 4.07830 | 16156 ft | 383 kts | 242° |
| 2026-04-27 08:08 | 52.29619 | 4.04021 | 16871 ft | 387 kts | 243° |
| 2026-04-27 08:08 | 52.28305 | 4.00163 | 17592 ft | 390 kts | 243° |
| 2026-04-27 08:09 | 52.26955 | 3.96201 | 18307 ft | 394 kts | 243° |
| 2026-04-27 08:09 | 52.25631 | 3.92326 | 18963 ft | 398 kts | 243° |
| 2026-04-27 08:09 | 52.24278 | 3.88370 | 19592 ft | 400 kts | 243° |
| 2026-04-27 08:09 | 52.22909 | 3.84374 | 20246 ft | 403 kts | 243° |
| 2026-04-27 08:10 | 52.21533 | 3.80367 | 20879 ft | 405 kts | 243° |
| 2026-04-27 08:10 | 52.20153 | 3.76353 | 21476 ft | 408 kts | 243° |
| 2026-04-27 08:10 | 52.18756 | 3.72295 | 22086 ft | 411 kts | 242° |
| 2026-04-27 08:10 | 52.17357 | 3.68237 | 22669 ft | 414 kts | 242° |
| 2026-04-27 08:11 | 52.15935 | 3.64121 | 23257 ft | 417 kts | 242° |
| 2026-04-27 08:11 | 52.14486 | 3.59933 | 23835 ft | 420 kts | 242° |
| 2026-04-27 08:11 | 52.13043 | 3.55769 | 24311 ft | 423 kts | 242° |
| 2026-04-27 08:11 | 52.11585 | 3.51569 | 24818 ft | 424 kts | 242° |
| 2026-04-27 08:12 | 52.10134 | 3.47398 | 25316 ft | 426 kts | 242° |
| 2026-04-27 08:12 | 52.08662 | 3.43172 | 25811 ft | 428 kts | 242° |
| 2026-04-27 08:12 | 52.07669 | 3.40324 | 26129 ft | 429 kts | 242° |
| 2026-04-27 08:12 | 52.06196 | 3.36106 | 26593 ft | 431 kts | 242° |
| 2026-04-27 08:13 | 52.04714 | 3.31870 | 27034 ft | 433 kts | 242° |
| 2026-04-27 08:13 | 52.03221 | 3.27612 | 27466 ft | 435 kts | 242° |
| 2026-04-27 08:13 | 52.01723 | 3.23345 | 27886 ft | 437 kts | 242° |
| 2026-04-27 08:13 | 52.00202 | 3.19020 | 28312 ft | 439 kts | 242° |
| 2026-04-27 08:14 | 51.98699 | 3.14752 | 28709 ft | 441 kts | 242° |
| 2026-04-27 08:14 | 51.97166 | 3.10405 | 29081 ft | 442 kts | 242° |
| 2026-04-27 08:14 | 51.95635 | 3.06075 | 29444 ft | 444 kts | 242° |
| 2026-04-27 08:14 | 51.94081 | 3.01686 | 29818 ft | 445 kts | 242° |
| 2026-04-27 08:15 | 51.92558 | 2.97393 | 30289 ft | 444 kts | 242° |
| 2026-04-27 08:15 | 51.91010 | 2.93036 | 30769 ft | 441 kts | 242° |
| 2026-04-27 08:15 | 51.89482 | 2.88743 | 31141 ft | 440 kts | 242° |
| 2026-04-27 08:15 | 51.87949 | 2.84439 | 31475 ft | 440 kts | 242° |
| 2026-04-27 08:16 | 51.86426 | 2.80168 | 31796 ft | 439 kts | 242° |
| 2026-04-27 08:16 | 51.84891 | 2.75879 | 32156 ft | 439 kts | 242° |
| 2026-04-27 08:16 | 51.83416 | 2.71555 | 32264 ft | 441 kts | 246° |
| 2026-04-27 08:16 | 51.82287 | 2.66971 | 32305 ft | 439 kts | 253° |
| 2026-04-27 08:17 | 51.80875 | 2.57320 | 32310 ft | 436 kts | 263° |
| 2026-04-27 08:17 | 51.80271 | 2.47634 | 32311 ft | 436 kts | 263° |
| 2026-04-27 08:18 | 51.79597 | 2.37854 | 32321 ft | 437 kts | 263° |
| 2026-04-27 08:18 | 51.78904 | 2.28062 | 32318 ft | 437 kts | 263° |
| 2026-04-27 08:19 | 51.78225 | 2.18229 | 32317 ft | 437 kts | 264° |
| 2026-04-27 08:19 | 51.77661 | 2.08450 | 32319 ft | 437 kts | 264° |
| 2026-04-27 08:20 | 51.77098 | 1.98667 | 32318 ft | 438 kts | 264° |
| 2026-04-27 08:20 | 51.76509 | 1.88819 | 32317 ft | 438 kts | 264° |
| 2026-04-27 08:21 | 51.75908 | 1.78980 | 32327 ft | 439 kts | 264° |
| 2026-04-27 08:21 | 51.75303 | 1.69214 | 32325 ft | 439 kts | 264° |
| 2026-04-27 08:22 | 51.74196 | 1.59500 | 32320 ft | 438 kts | 254° |
| 2026-04-27 08:22 | 51.72063 | 1.50258 | 32325 ft | 439 kts | 248° |
| 2026-04-27 08:23 | 51.69719 | 1.41145 | 32313 ft | 440 kts | 249° |
| 2026-04-27 08:23 | 51.67412 | 1.32059 | 32316 ft | 439 kts | 248° |
| 2026-04-27 08:24 | 51.65084 | 1.22911 | 32332 ft | 440 kts | 248° |
| 2026-04-27 08:24 | 51.62756 | 1.13811 | 32331 ft | 440 kts | 248° |
| 2026-04-27 08:25 | 51.60408 | 1.04672 | 32309 ft | 440 kts | 248° |
| 2026-04-27 08:25 | 51.58064 | 0.95587 | 32307 ft | 440 kts | 248° |
| 2026-04-27 08:26 | 51.55688 | 0.86417 | 32311 ft | 441 kts | 248° |
| 2026-04-27 08:26 | 51.53326 | 0.77334 | 32325 ft | 442 kts | 248° |
| 2026-04-27 08:27 | 51.50946 | 0.68225 | 32326 ft | 442 kts | 248° |
| 2026-04-27 08:27 | 51.48574 | 0.59179 | 32330 ft | 442 kts | 248° |
| 2026-04-27 08:28 | 51.46175 | 0.50064 | 32303 ft | 442 kts | 248° |
| 2026-04-27 08:28 | 51.43767 | 0.40955 | 32323 ft | 442 kts | 247° |
| 2026-04-27 08:29 | 51.41357 | 0.31873 | 32323 ft | 443 kts | 247° |
| 2026-04-27 08:29 | 51.38940 | 0.22800 | 32323 ft | 443 kts | 247° |
| 2026-04-27 08:30 | 51.36562 | 0.13910 | 32325 ft | 443 kts | 247° |
| 2026-04-27 08:30 | 51.34243 | 0.05273 | 32316 ft | 443 kts | 247° |
| 2026-04-27 08:31 | 51.32223 | -0.02226 | 32321 ft | 443 kts | 247° |
| 2026-04-27 08:31 | 51.29364 | -0.12794 | 32318 ft | 444 kts | 247° |
| 2026-04-27 08:32 | 51.26899 | -0.21872 | 32322 ft | 445 kts | 246° |
| 2026-04-27 08:32 | 51.24826 | -0.29474 | 32319 ft | 445 kts | 246° |
| 2026-04-27 08:33 | 51.22418 | -0.38277 | 32320 ft | 446 kts | 246° |
| 2026-04-27 08:33 | 51.20340 | -0.45846 | 32320 ft | 446 kts | 246° |
| 2026-04-27 08:34 | 51.17827 | -0.54967 | 32322 ft | 446 kts | 246° |
| 2026-04-27 08:34 | 51.15340 | -0.63961 | 32324 ft | 446 kts | 246° |
| 2026-04-27 08:35 | 51.12830 | -0.72999 | 32320 ft | 447 kts | 246° |
| 2026-04-27 08:35 | 51.10288 | -0.82120 | 32327 ft | 448 kts | 246° |
| 2026-04-27 08:36 | 51.07762 | -0.91148 | 32316 ft | 448 kts | 246° |
| 2026-04-27 08:36 | 51.05243 | -1.00116 | 32320 ft | 448 kts | 246° |
| 2026-04-27 08:37 | 51.02671 | -1.09239 | 32301 ft | 449 kts | 245° |
| 2026-04-27 08:37 | 51.00114 | -1.18276 | 32299 ft | 449 kts | 245° |
| 2026-04-27 08:38 | 50.97539 | -1.27348 | 32293 ft | 450 kts | 245° |
| 2026-04-27 08:38 | 50.95273 | -1.36519 | 32288 ft | 450 kts | 253° |
| 2026-04-27 08:39 | 50.93986 | -1.46310 | 32299 ft | 452 kts | 258° |
| 2026-04-27 08:39 | 50.92760 | -1.56066 | 32292 ft | 452 kts | 257° |
| 2026-04-27 08:40 | 50.91486 | -1.65871 | 32301 ft | 453 kts | 257° |
| 2026-04-27 08:40 | 50.90210 | -1.75677 | 32297 ft | 454 kts | 257° |
| 2026-04-27 08:41 | 50.88933 | -1.85461 | 32299 ft | 455 kts | 257° |
| 2026-04-27 08:41 | 50.87643 | -1.95292 | 32296 ft | 456 kts | 257° |
| 2026-04-27 08:42 | 50.86339 | -2.05152 | 32297 ft | 457 kts | 257° |
| 2026-04-27 08:42 | 50.85035 | -2.14987 | 32307 ft | 458 kts | 257° |
| 2026-04-27 08:43 | 50.83771 | -2.24469 | 32305 ft | 460 kts | 257° |
| 2026-04-27 08:43 | 50.82434 | -2.34432 | 32314 ft | 460 kts | 257° |
| 2026-04-27 08:44 | 50.81098 | -2.44322 | 32320 ft | 462 kts | 257° |
| 2026-04-27 08:44 | 50.79745 | -2.54274 | 32317 ft | 463 kts | 257° |
| 2026-04-27 08:45 | 50.78507 | -2.64280 | 32317 ft | 464 kts | 259° |
| 2026-04-27 08:45 | 50.77383 | -2.74244 | 32319 ft | 466 kts | 259° |
| 2026-04-27 08:46 | 50.76229 | -2.84283 | 32321 ft | 468 kts | 259° |
| 2026-04-27 08:46 | 50.75033 | -2.94439 | 32323 ft | 469 kts | 259° |
| 2026-04-27 08:47 | 50.73819 | -3.04602 | 32322 ft | 471 kts | 259° |
| 2026-04-27 08:47 | 50.72593 | -3.14781 | 32330 ft | 472 kts | 259° |
| 2026-04-27 08:48 | 50.71360 | -3.24943 | 32320 ft | 473 kts | 259° |
| 2026-04-27 08:48 | 50.70114 | -3.35142 | 32321 ft | 473 kts | 259° |
| 2026-04-27 08:49 | 50.68856 | -3.45362 | 32309 ft | 475 kts | 259° |
| 2026-04-27 08:49 | 50.67591 | -3.55554 | 32323 ft | 476 kts | 259° |
| 2026-04-27 08:50 | 50.66310 | -3.65810 | 32323 ft | 478 kts | 259° |
| 2026-04-27 08:50 | 50.65012 | -3.76120 | 32303 ft | 479 kts | 259° |
| 2026-04-27 08:51 | 50.63715 | -3.86350 | 32324 ft | 480 kts | 259° |
| 2026-04-27 08:51 | 50.62383 | -3.96746 | 32316 ft | 482 kts | 259° |
| 2026-04-27 08:52 | 50.60993 | -4.07009 | 32319 ft | 483 kts | 258° |
| 2026-04-27 08:52 | 50.59551 | -4.17425 | 32303 ft | 484 kts | 258° |
| 2026-04-27 08:53 | 50.58112 | -4.27800 | 32317 ft | 485 kts | 259° |
| 2026-04-27 08:53 | 50.56678 | -4.38104 | 32324 ft | 486 kts | 259° |
| 2026-04-27 08:54 | 50.55225 | -4.48500 | 32326 ft | 487 kts | 259° |
| 2026-04-27 08:54 | 50.53759 | -4.58910 | 32321 ft | 488 kts | 259° |
| 2026-04-27 08:55 | 50.52281 | -4.69337 | 32319 ft | 489 kts | 259° |
| 2026-04-27 08:55 | 50.50784 | -4.79820 | 32356 ft | 492 kts | 259° |
| 2026-04-27 08:56 | 50.50033 | -4.85058 | 32547 ft | 494 kts | 259° |
| 2026-04-27 08:56 | 50.49274 | -4.90319 | 32916 ft | 492 kts | 259° |
| 2026-04-27 08:56 | 50.48521 | -4.95525 | 33332 ft | 490 kts | 259° |
| 2026-04-27 08:56 | 50.47755 | -5.00804 | 33725 ft | 488 kts | 259° |
| 2026-04-27 08:57 | 50.46242 | -5.11183 | 34261 ft | 489 kts | 259° |
| 2026-04-27 08:57 | 50.45478 | -5.16402 | 34290 ft | 490 kts | 259° |
| 2026-04-27 08:58 | 50.43953 | -5.26761 | 34307 ft | 490 kts | 259° |
| 2026-04-27 08:58 | 50.42407 | -5.37188 | 34318 ft | 489 kts | 259° |
| 2026-04-27 08:59 | 50.40852 | -5.47603 | 34314 ft | 490 kts | 259° |
| 2026-04-27 08:59 | 50.39289 | -5.58013 | 34313 ft | 491 kts | 259° |
| 2026-04-27 09:00 | 50.37713 | -5.68433 | 34314 ft | 492 kts | 259° |
| 2026-04-27 09:00 | 50.36127 | -5.78856 | 34310 ft | 493 kts | 259° |
| 2026-04-27 09:01 | 50.34792 | -5.87570 | 34307 ft | 493 kts | 258° |
| 2026-04-27 09:01 | 50.33186 | -5.97996 | 34312 ft | 493 kts | 258° |
| 2026-04-27 09:02 | 50.31565 | -6.08450 | 34315 ft | 494 kts | 259° |
| 2026-04-27 09:02 | 50.29936 | -6.18894 | 34326 ft | 495 kts | 258° |
| 2026-04-27 09:03 | 50.28285 | -6.29407 | 34325 ft | 495 kts | 258° |
| 2026-04-27 09:03 | 50.26632 | -6.39865 | 34316 ft | 496 kts | 258° |
| 2026-04-27 09:04 | 50.24964 | -6.50346 | 34323 ft | 496 kts | 258° |
| 2026-04-27 09:04 | 50.23296 | -6.60771 | 34325 ft | 497 kts | 258° |
| 2026-04-27 09:05 | 50.21610 | -6.71237 | 34326 ft | 498 kts | 258° |
| 2026-04-27 09:05 | 50.19906 | -6.81745 | 34329 ft | 498 kts | 258° |
| 2026-04-27 09:06 | 50.18181 | -6.92319 | 34330 ft | 499 kts | 258° |
| 2026-04-27 09:06 | 50.16472 | -7.02734 | 34329 ft | 499 kts | 258° |
| 2026-04-27 09:07 | 50.14739 | -7.13229 | 34331 ft | 500 kts | 258° |
| 2026-04-27 09:07 | 50.12986 | -7.23776 | 34333 ft | 500 kts | 258° |
| 2026-04-27 09:08 | 50.11225 | -7.34308 | 34329 ft | 500 kts | 258° |
| 2026-04-27 09:08 | 50.09474 | -7.44720 | 34334 ft | 501 kts | 258° |
| 2026-04-27 09:09 | 50.07693 | -7.55245 | 34334 ft | 502 kts | 258° |
| 2026-04-27 09:09 | 50.05901 | -7.65770 | 34334 ft | 503 kts | 258° |
| 2026-04-27 09:10 | 50.04099 | -7.76287 | 34336 ft | 503 kts | 258° |
| 2026-04-27 09:10 | 50.02275 | -7.86879 | 34339 ft | 503 kts | 258° |
| 2026-04-27 09:11 | 50.00460 | -7.97351 | 34339 ft | 503 kts | 258° |
| 2026-04-27 09:11 | 49.98045 | -8.07740 | 34354 ft | 507 kts | 249° |
| 2026-04-27 09:12 | 49.95262 | -8.17821 | 34340 ft | 509 kts | 250° |
| 2026-04-27 09:12 | 49.92515 | -8.27881 | 34344 ft | 509 kts | 250° |
| 2026-04-27 09:13 | 49.89774 | -8.38001 | 34345 ft | 509 kts | 250° |
| 2026-04-27 09:13 | 49.87020 | -8.48160 | 34349 ft | 509 kts | 250° |
| 2026-04-27 09:14 | 49.84263 | -8.58282 | 34347 ft | 510 kts | 250° |
| 2026-04-27 09:14 | 49.81493 | -8.68399 | 34349 ft | 510 kts | 250° |
| 2026-04-27 09:15 | 49.78716 | -8.78499 | 34347 ft | 510 kts | 250° |
| 2026-04-27 09:15 | 49.75920 | -8.88618 | 34348 ft | 510 kts | 250° |
| 2026-04-27 09:16 | 49.73133 | -8.98664 | 34355 ft | 510 kts | 249° |
| 2026-04-27 09:16 | 49.70321 | -9.08759 | 34352 ft | 510 kts | 249° |
| 2026-04-27 09:17 | 49.67513 | -9.18797 | 34356 ft | 511 kts | 249° |
| 2026-04-27 09:17 | 49.64683 | -9.28868 | 34355 ft | 511 kts | 249° |
| 2026-04-27 09:18 | 49.61852 | -9.38903 | 34355 ft | 511 kts | 249° |
| 2026-04-27 09:18 | 49.59006 | -9.48946 | 34357 ft | 511 kts | 249° |
| 2026-04-27 09:19 | 49.56150 | -9.58984 | 34363 ft | 511 kts | 249° |
| 2026-04-27 09:19 | 49.53276 | -9.69044 | 34360 ft | 511 kts | 249° |
| 2026-04-27 09:20 | 49.50419 | -9.79000 | 34357 ft | 511 kts | 249° |
| 2026-04-27 09:20 | 49.47533 | -9.89014 | 34365 ft | 511 kts | 249° |
| 2026-04-27 09:21 | 49.44641 | -9.99011 | 34361 ft | 511 kts | 249° |
| 2026-04-27 09:21 | 49.41740 | -10.08992 | 34365 ft | 511 kts | 249° |
| 2026-04-27 09:22 | 49.38827 | -10.18978 | 34364 ft | 512 kts | 249° |
| 2026-04-27 09:22 | 49.35902 | -10.28963 | 34364 ft | 512 kts | 249° |
| 2026-04-27 09:23 | 49.32973 | -10.38918 | 34371 ft | 512 kts | 248° |
| 2026-04-27 09:23 | 49.30046 | -10.48829 | 34359 ft | 512 kts | 248° |
| 2026-04-27 09:24 | 49.27114 | -10.58715 | 34363 ft | 512 kts | 248° |
| 2026-04-27 09:24 | 49.24162 | -10.68626 | 34376 ft | 511 kts | 248° |
| 2026-04-27 09:25 | 49.21180 | -10.78600 | 34371 ft | 511 kts | 248° |
| 2026-04-27 09:25 | 49.18211 | -10.88489 | 34371 ft | 511 kts | 248° |
| 2026-04-27 09:26 | 49.15238 | -10.98351 | 34371 ft | 511 kts | 248° |
| 2026-04-27 09:26 | 49.12250 | -11.08224 | 34374 ft | 511 kts | 248° |
| 2026-04-27 09:27 | 49.09255 | -11.18081 | 34372 ft | 512 kts | 248° |
| 2026-04-27 09:27 | 49.06269 | -11.27867 | 34374 ft | 512 kts | 248° |
| 2026-04-27 09:28 | 49.03262 | -11.37686 | 34375 ft | 511 kts | 248° |
| 2026-04-27 09:28 | 49.00230 | -11.47547 | 34378 ft | 510 kts | 248° |
| 2026-04-27 09:29 | 48.97227 | -11.57273 | 34382 ft | 510 kts | 248° |
| 2026-04-27 09:29 | 48.94199 | -11.67043 | 34381 ft | 511 kts | 247° |
| 2026-04-27 09:30 | 48.91163 | -11.76801 | 34378 ft | 510 kts | 247° |
| 2026-04-27 09:30 | 48.88115 | -11.86563 | 34381 ft | 510 kts | 247° |
| 2026-04-27 09:31 | 48.85070 | -11.96278 | 34382 ft | 509 kts | 247° |
| 2026-04-27 09:31 | 48.82324 | -12.04197 | 34382 ft | 511 kts | 240° |
| 2026-04-27 09:32 | 48.78473 | -12.13312 | 34385 ft | 511 kts | 239° |
| 2026-04-27 09:32 | 48.74635 | -12.22352 | 34379 ft | 511 kts | 239° |
| 2026-04-27 09:33 | 48.70813 | -12.31446 | 34388 ft | 511 kts | 239° |
| 2026-04-27 09:33 | 48.67000 | -12.40554 | 34388 ft | 510 kts | 240° |
| 2026-04-27 09:34 | 48.63210 | -12.49587 | 34387 ft | 509 kts | 239° |
| 2026-04-27 09:34 | 48.59416 | -12.58592 | 34383 ft | 509 kts | 239° |
| 2026-04-27 09:35 | 48.55611 | -12.67589 | 34385 ft | 508 kts | 239° |
| 2026-04-27 09:35 | 48.51800 | -12.76568 | 34395 ft | 508 kts | 239° |
| 2026-04-27 09:36 | 48.47978 | -12.85543 | 34375 ft | 508 kts | 239° |
| 2026-04-27 09:36 | 48.44152 | -12.94498 | 34375 ft | 507 kts | 239° |
| 2026-04-27 09:37 | 48.40312 | -13.03456 | 34399 ft | 507 kts | 239° |
| 2026-04-27 09:37 | 48.36483 | -13.12360 | 34394 ft | 507 kts | 239° |
| 2026-04-27 09:38 | 48.32640 | -13.21266 | 34387 ft | 507 kts | 239° |
| 2026-04-27 09:38 | 48.28807 | -13.30121 | 34391 ft | 506 kts | 239° |
| 2026-04-27 09:39 | 48.24970 | -13.38953 | 34385 ft | 505 kts | 239° |
| 2026-04-27 09:39 | 48.21125 | -13.47778 | 34388 ft | 504 kts | 239° |
| 2026-04-27 09:40 | 48.17290 | -13.56551 | 34388 ft | 504 kts | 238° |
| 2026-04-27 09:40 | 48.13416 | -13.65382 | 34386 ft | 504 kts | 238° |
| 2026-04-27 09:41 | 48.09565 | -13.74135 | 34387 ft | 503 kts | 238° |
| 2026-04-27 09:41 | 48.05732 | -13.82818 | 34386 ft | 503 kts | 238° |
| 2026-04-27 09:42 | 48.01850 | -13.91585 | 34387 ft | 503 kts | 238° |
| 2026-04-27 09:42 | 47.97982 | -14.00290 | 34381 ft | 502 kts | 238° |
| 2026-04-27 09:43 | 47.94142 | -14.08905 | 34384 ft | 502 kts | 238° |
| 2026-04-27 09:43 | 47.90272 | -14.17560 | 34384 ft | 501 kts | 238° |
| 2026-04-27 09:44 | 47.86386 | -14.26225 | 34385 ft | 501 kts | 238° |
| 2026-04-27 09:44 | 47.82515 | -14.34829 | 34385 ft | 501 kts | 238° |
| 2026-04-27 09:45 | 47.78634 | -14.43427 | 34385 ft | 500 kts | 238° |
| 2026-04-27 09:45 | 47.74744 | -14.52018 | 34382 ft | 500 kts | 238° |
| 2026-04-27 09:46 | 47.70853 | -14.60583 | 34386 ft | 500 kts | 238° |
| 2026-04-27 09:46 | 47.66956 | -14.69137 | 34386 ft | 499 kts | 238° |
| 2026-04-27 09:47 | 47.63068 | -14.77644 | 34379 ft | 499 kts | 237° |
| 2026-04-27 09:47 | 47.59183 | -14.86118 | 34381 ft | 498 kts | 237° |
| 2026-04-27 09:48 | 47.55285 | -14.94594 | 34373 ft | 497 kts | 237° |
| 2026-04-27 09:48 | 47.51394 | -15.03027 | 34374 ft | 497 kts | 237° |
| 2026-04-27 09:49 | 47.47478 | -15.11489 | 34372 ft | 496 kts | 237° |
| 2026-04-27 09:49 | 47.43574 | -15.19901 | 34373 ft | 496 kts | 237° |
| 2026-04-27 09:50 | 47.39675 | -15.28274 | 34373 ft | 495 kts | 237° |
| 2026-04-27 09:50 | 47.35761 | -15.36656 | 34375 ft | 495 kts | 237° |
| 2026-04-27 09:51 | 47.31855 | -15.44996 | 34374 ft | 495 kts | 237° |
| 2026-04-27 09:51 | 47.27949 | -15.53309 | 34369 ft | 494 kts | 237° |
| 2026-04-27 09:52 | 47.24040 | -15.61603 | 34372 ft | 493 kts | 237° |
| 2026-04-27 09:52 | 47.20117 | -15.69903 | 34371 ft | 492 kts | 237° |
| 2026-04-27 09:53 | 47.16205 | -15.78153 | 34369 ft | 492 kts | 237° |
| 2026-04-27 09:53 | 47.12285 | -15.86398 | 34369 ft | 492 kts | 237° |
| 2026-04-27 09:54 | 47.08341 | -15.94666 | 34370 ft | 492 kts | 237° |
| 2026-04-27 09:54 | 47.04413 | -16.02879 | 34359 ft | 491 kts | 237° |
| 2026-04-27 09:55 | 47.00501 | -16.11032 | 34360 ft | 491 kts | 237° |
| 2026-04-27 09:55 | 46.94592 | -16.23303 | 34362 ft | 492 kts | 237° |
| 2026-04-27 09:56 | 46.90641 | -16.31478 | 34359 ft | 492 kts | 236° |
| 2026-04-27 09:56 | 46.86682 | -16.39645 | 34363 ft | 492 kts | 236° |
| 2026-04-27 09:57 | 46.82713 | -16.47809 | 34356 ft | 492 kts | 236° |
| 2026-04-27 09:57 | 46.78759 | -16.55918 | 34357 ft | 492 kts | 236° |
| 2026-04-27 09:58 | 46.74779 | -16.64056 | 34353 ft | 492 kts | 236° |
| 2026-04-27 09:58 | 46.70774 | -16.72221 | 34347 ft | 492 kts | 236° |
| 2026-04-27 09:59 | 46.66812 | -16.80275 | 34352 ft | 492 kts | 236° |
| 2026-04-27 09:59 | 46.62815 | -16.88379 | 34348 ft | 493 kts | 236° |
| 2026-04-27 10:00 | 46.58803 | -16.96486 | 34345 ft | 492 kts | 236° |
| 2026-04-27 10:00 | 46.54797 | -17.04559 | 34342 ft | 491 kts | 236° |
| 2026-04-27 10:01 | 46.50832 | -17.12527 | 34343 ft | 491 kts | 236° |
| 2026-04-27 10:01 | 46.46830 | -17.20546 | 34553 ft | 491 kts | 237° |
| 2026-04-27 10:02 | 46.44822 | -17.24559 | 34331 ft | 490 kts | 236° |
| 2026-04-27 10:02 | 46.42815 | -17.28566 | 34337 ft | 490 kts | 236° |
| 2026-04-27 10:02 | 46.38813 | -17.36542 | 34350 ft | 490 kts | 236° |
| 2026-04-27 10:03 | 46.34807 | -17.44499 | 34341 ft | 489 kts | 236° |
| 2026-04-27 10:03 | 46.30795 | -17.52447 | 34336 ft | 488 kts | 236° |
| 2026-04-27 10:04 | 46.26790 | -17.60359 | 34330 ft | 487 kts | 236° |
| 2026-04-27 10:04 | 46.22751 | -17.68315 | 34332 ft | 487 kts | 236° |
| 2026-04-27 10:05 | 46.18773 | -17.76129 | 34327 ft | 487 kts | 236° |
| 2026-04-27 10:05 | 46.14748 | -17.84013 | 34332 ft | 487 kts | 236° |
| 2026-04-27 10:06 | 46.10713 | -17.91895 | 34324 ft | 487 kts | 236° |
| 2026-04-27 10:06 | 46.07359 | -17.98429 | 34323 ft | 487 kts | 236° |
| 2026-04-27 10:07 | 46.02678 | -18.07523 | 34317 ft | 486 kts | 236° |
| 2026-04-27 10:07 | 45.98656 | -18.15315 | 34323 ft | 485 kts | 236° |
| 2026-04-27 10:08 | 45.95276 | -18.21844 | 34319 ft | 484 kts | 236° |
| 2026-04-27 10:08 | 45.91274 | -18.29557 | 34322 ft | 484 kts | 235° |
| 2026-04-27 10:09 | 45.87249 | -18.37295 | 34319 ft | 484 kts | 235° |
| 2026-04-27 10:09 | 45.83220 | -18.45015 | 34317 ft | 483 kts | 235° |
| 2026-04-27 10:10 | 45.79190 | -18.52719 | 34317 ft | 482 kts | 235° |
| 2026-04-27 10:10 | 45.75156 | -18.60409 | 34319 ft | 481 kts | 235° |
| 2026-04-27 10:11 | 45.71125 | -18.68072 | 34311 ft | 481 kts | 235° |
| 2026-04-27 10:11 | 45.67127 | -18.75653 | 34313 ft | 480 kts | 235° |
| 2026-04-27 10:12 | 45.63087 | -18.83293 | 34310 ft | 480 kts | 235° |
| 2026-04-27 10:12 | 45.59037 | -18.90929 | 34311 ft | 480 kts | 235° |
| 2026-04-27 10:13 | 45.55021 | -18.98482 | 34308 ft | 479 kts | 235° |
| 2026-04-27 10:13 | 45.50989 | -19.06045 | 34307 ft | 479 kts | 234° |
| 2026-04-27 10:14 | 45.46947 | -19.13607 | 34307 ft | 479 kts | 234° |
| 2026-04-27 10:14 | 45.42896 | -19.21164 | 34310 ft | 479 kts | 234° |
| 2026-04-27 10:15 | 45.38841 | -19.28710 | 34303 ft | 479 kts | 234° |
| 2026-04-27 10:15 | 45.34813 | -19.36186 | 34306 ft | 479 kts | 234° |
| 2026-04-27 10:16 | 45.30729 | -19.43745 | 34304 ft | 479 kts | 234° |
| 2026-04-27 10:16 | 45.26678 | -19.51224 | 34303 ft | 478 kts | 234° |
| 2026-04-27 10:17 | 45.22601 | -19.58731 | 34301 ft | 478 kts | 234° |
| 2026-04-27 10:17 | 45.18542 | -19.66184 | 34303 ft | 478 kts | 234° |
| 2026-04-27 10:18 | 45.14478 | -19.73629 | 34300 ft | 478 kts | 234° |
| 2026-04-27 10:18 | 45.10432 | -19.81022 | 34302 ft | 478 kts | 234° |
| 2026-04-27 10:19 | 45.06349 | -19.88463 | 34292 ft | 477 kts | 234° |
| 2026-04-27 10:19 | 45.02284 | -19.95855 | 34309 ft | 477 kts | 234° |
| 2026-04-27 10:20 | 44.98144 | -20.03284 | 34290 ft | 478 kts | 233° |
| 2026-04-27 10:20 | 44.93917 | -20.10470 | 34295 ft | 478 kts | 232° |
| 2026-04-27 10:21 | 44.89654 | -20.17626 | 34296 ft | 478 kts | 232° |
| 2026-04-27 10:21 | 44.85388 | -20.24810 | 34295 ft | 478 kts | 232° |
| 2026-04-27 10:22 | 44.81119 | -20.32015 | 34297 ft | 478 kts | 232° |
| 2026-04-27 10:22 | 44.76856 | -20.39200 | 34293 ft | 478 kts | 232° |
| 2026-04-27 10:23 | 44.72587 | -20.46380 | 34289 ft | 479 kts | 232° |
| 2026-04-27 10:23 | 44.68295 | -20.53576 | 34288 ft | 479 kts | 232° |
| 2026-04-27 10:24 | 44.64022 | -20.60722 | 34305 ft | 479 kts | 232° |
| 2026-04-27 10:24 | 44.59717 | -20.67903 | 34312 ft | 479 kts | 232° |
| 2026-04-27 10:25 | 44.55439 | -20.75021 | 34305 ft | 479 kts | 231° |
| 2026-04-27 10:25 | 44.51137 | -20.82161 | 34308 ft | 479 kts | 231° |
| 2026-04-27 10:26 | 44.46802 | -20.89339 | 34286 ft | 479 kts | 231° |
| 2026-04-27 10:26 | 44.42508 | -20.96430 | 34285 ft | 479 kts | 231° |
| 2026-04-27 10:27 | 44.38196 | -21.03533 | 34302 ft | 479 kts | 231° |
| 2026-04-27 10:27 | 44.33873 | -21.10637 | 34311 ft | 479 kts | 231° |
| 2026-04-27 10:28 | 44.29544 | -21.17733 | 34298 ft | 479 kts | 231° |
| 2026-04-27 10:28 | 44.25231 | -21.24785 | 34302 ft | 479 kts | 231° |
| 2026-04-27 10:29 | 44.20903 | -21.31845 | 34305 ft | 479 kts | 231° |
| 2026-04-27 10:29 | 44.16557 | -21.38916 | 34280 ft | 479 kts | 231° |
| 2026-04-27 10:30 | 44.12212 | -21.45968 | 34295 ft | 479 kts | 231° |
| 2026-04-27 10:30 | 44.07882 | -21.52978 | 34292 ft | 479 kts | 231° |
| 2026-04-27 10:31 | 44.03536 | -21.59997 | 34291 ft | 479 kts | 231° |
| 2026-04-27 10:31 | 43.99165 | -21.67038 | 34289 ft | 479 kts | 231° |
| 2026-04-27 10:32 | 43.94821 | -21.74021 | 34285 ft | 479 kts | 231° |
| 2026-04-27 10:32 | 43.90468 | -21.80999 | 34287 ft | 479 kts | 230° |
| 2026-04-27 10:33 | 43.86090 | -21.88001 | 34289 ft | 479 kts | 230° |
| 2026-04-27 10:33 | 43.81716 | -21.94980 | 34280 ft | 479 kts | 230° |
| 2026-04-27 10:34 | 43.77337 | -22.01948 | 34280 ft | 478 kts | 230° |
| 2026-04-27 10:34 | 43.72963 | -22.08893 | 34282 ft | 478 kts | 230° |
| 2026-04-27 10:35 | 43.68600 | -22.15803 | 34279 ft | 478 kts | 230° |
| 2026-04-27 10:35 | 43.64204 | -22.22749 | 34278 ft | 478 kts | 230° |
| 2026-04-27 10:36 | 43.59818 | -22.29662 | 34270 ft | 477 kts | 230° |
| 2026-04-27 10:36 | 43.55465 | -22.36507 | 34229 ft | 477 kts | 229° |
| 2026-04-27 10:37 | 43.51068 | -22.43406 | 34265 ft | 476 kts | 229° |
| 2026-04-27 10:37 | 43.46727 | -22.50198 | 34264 ft | 474 kts | 229° |
| 2026-04-27 10:38 | 43.42372 | -22.56997 | 34265 ft | 473 kts | 229° |
| 2026-04-27 10:38 | 43.38015 | -22.63783 | 34262 ft | 470 kts | 229° |
| 2026-04-27 10:39 | 43.33695 | -22.70495 | 34258 ft | 467 kts | 229° |
| 2026-04-27 10:39 | 43.29415 | -22.77131 | 34266 ft | 464 kts | 229° |
| 2026-04-27 10:40 | 43.25136 | -22.83750 | 34270 ft | 464 kts | 229° |
| 2026-04-27 10:40 | 43.20834 | -22.90388 | 34270 ft | 466 kts | 229° |
| 2026-04-27 10:41 | 43.16517 | -22.97035 | 34268 ft | 469 kts | 229° |
| 2026-04-27 10:41 | 43.12157 | -23.03733 | 34258 ft | 469 kts | 229° |
| 2026-04-27 10:42 | 43.07844 | -23.10342 | 34259 ft | 466 kts | 229° |
| 2026-04-27 10:42 | 43.04230 | -23.15868 | 34257 ft | 464 kts | 229° |
| 2026-04-27 10:43 | 42.99227 | -23.23502 | 34254 ft | 462 kts | 229° |
| 2026-04-27 10:43 | 42.95642 | -23.28960 | 34259 ft | 463 kts | 229° |
| 2026-04-27 10:44 | 42.91322 | -23.35524 | 34254 ft | 463 kts | 229° |
| 2026-04-27 10:44 | 42.87028 | -23.42033 | 34253 ft | 462 kts | 228° |
| 2026-04-27 10:45 | 42.82714 | -23.48557 | 34250 ft | 460 kts | 228° |
| 2026-04-27 10:45 | 42.78451 | -23.54989 | 34255 ft | 460 kts | 228° |
| 2026-04-27 10:46 | 42.74170 | -23.61435 | 34243 ft | 460 kts | 228° |
| 2026-04-27 10:46 | 42.69864 | -23.67905 | 34255 ft | 460 kts | 228° |
| 2026-04-27 10:47 | 42.65575 | -23.74333 | 34242 ft | 459 kts | 228° |
| 2026-04-27 10:47 | 42.61263 | -23.80782 | 34237 ft | 459 kts | 228° |
| 2026-04-27 10:48 | 42.56990 | -23.87158 | 34234 ft | 459 kts | 228° |
| 2026-04-27 10:48 | 42.52665 | -23.93599 | 34253 ft | 459 kts | 228° |
| 2026-04-27 10:49 | 42.48376 | -23.99971 | 34230 ft | 458 kts | 228° |
| 2026-04-27 10:49 | 42.44074 | -24.06348 | 34227 ft | 458 kts | 228° |
| 2026-04-27 10:50 | 42.39756 | -24.12736 | 34227 ft | 458 kts | 228° |
| 2026-04-27 10:50 | 42.35445 | -24.19099 | 34248 ft | 458 kts | 227° |
| 2026-04-27 10:51 | 42.31143 | -24.25435 | 34225 ft | 458 kts | 227° |
| 2026-04-27 10:51 | 42.26828 | -24.31776 | 34216 ft | 458 kts | 227° |
| 2026-04-27 10:52 | 42.22500 | -24.38122 | 34220 ft | 458 kts | 227° |
| 2026-04-27 10:52 | 42.18194 | -24.44423 | 34235 ft | 458 kts | 227° |
| 2026-04-27 10:53 | 42.11709 | -24.53886 | 34218 ft | 457 kts | 227° |
| 2026-04-27 10:54 | 42.07380 | -24.60186 | 34217 ft | 457 kts | 227° |
| 2026-04-27 10:54 | 42.03058 | -24.66463 | 34212 ft | 456 kts | 227° |
| 2026-04-27 10:55 | 41.98770 | -24.72676 | 34209 ft | 456 kts | 227° |
| 2026-04-27 10:55 | 41.94441 | -24.78935 | 34226 ft | 456 kts | 227° |
| 2026-04-27 10:56 | 41.90117 | -24.85174 | 34202 ft | 455 kts | 227° |
| 2026-04-27 10:56 | 41.85812 | -24.91372 | 34197 ft | 455 kts | 227° |
| 2026-04-27 10:57 | 41.81496 | -24.97574 | 34198 ft | 454 kts | 227° |
| 2026-04-27 10:57 | 41.77176 | -25.03767 | 34218 ft | 454 kts | 227° |
| 2026-04-27 10:58 | 41.72852 | -25.09954 | 34202 ft | 454 kts | 227° |
| 2026-04-27 10:58 | 41.68533 | -25.16119 | 34198 ft | 454 kts | 227° |
| 2026-04-27 10:59 | 41.64210 | -25.22277 | 34195 ft | 454 kts | 227° |
| 2026-04-27 10:59 | 41.59896 | -25.28411 | 34197 ft | 453 kts | 227° |
| 2026-04-27 11:00 | 41.53412 | -25.37605 | 34210 ft | 452 kts | 227° |
| 2026-04-27 11:00 | 41.49088 | -25.43721 | 34191 ft | 452 kts | 227° |
| 2026-04-27 11:01 | 41.44770 | -25.49815 | 34188 ft | 452 kts | 227° |
| 2026-04-27 11:01 | 41.40481 | -25.55855 | 34183 ft | 452 kts | 227° |
| 2026-04-27 11:02 | 41.36162 | -25.61924 | 34202 ft | 451 kts | 227° |
| 2026-04-27 11:02 | 41.31841 | -25.67985 | 34209 ft | 450 kts | 227° |
| 2026-04-27 11:03 | 41.27533 | -25.74016 | 34189 ft | 450 kts | 227° |
| 2026-04-27 11:03 | 41.23193 | -25.80077 | 34176 ft | 451 kts | 227° |
| 2026-04-27 11:04 | 41.18882 | -25.86087 | 34175 ft | 451 kts | 227° |
| 2026-04-27 11:04 | 41.14549 | -25.92115 | 34174 ft | 450 kts | 227° |
| 2026-04-27 11:05 | 41.10215 | -25.98131 | 34190 ft | 450 kts | 228° |
| 2026-04-27 11:05 | 41.05910 | -26.04095 | 34191 ft | 450 kts | 228° |
| 2026-04-27 11:06 | 41.01586 | -26.10073 | 34187 ft | 449 kts | 228° |
| 2026-04-27 11:06 | 40.97256 | -26.16048 | 34182 ft | 449 kts | 228° |
| 2026-04-27 11:07 | 40.92917 | -26.22024 | 34165 ft | 449 kts | 229° |
| 2026-04-27 11:07 | 40.88583 | -26.27980 | 34160 ft | 448 kts | 229° |
| 2026-04-27 11:08 | 40.84278 | -26.33884 | 34160 ft | 447 kts | 229° |
| 2026-04-27 11:08 | 40.79949 | -26.39809 | 34178 ft | 446 kts | 229° |
| 2026-04-27 11:09 | 40.75628 | -26.45712 | 34180 ft | 446 kts | 229° |
| 2026-04-27 11:09 | 40.71345 | -26.51552 | 34173 ft | 446 kts | 229° |
| 2026-04-27 11:10 | 40.67022 | -26.57433 | 34145 ft | 446 kts | 229° |
| 2026-04-27 11:10 | 40.62696 | -26.63307 | 34164 ft | 446 kts | 229° |
| 2026-04-27 11:11 | 40.58386 | -26.69149 | 34165 ft | 445 kts | 229° |
| 2026-04-27 11:11 | 40.54069 | -26.74987 | 34157 ft | 445 kts | 229° |
| 2026-04-27 11:12 | 40.49751 | -26.80818 | 34151 ft | 444 kts | 229° |
| 2026-04-27 11:12 | 40.45430 | -26.86639 | 34148 ft | 444 kts | 229° |
| 2026-04-27 11:13 | 40.41116 | -26.92440 | 34151 ft | 443 kts | 229° |
| 2026-04-27 11:13 | 40.36815 | -26.98211 | 34148 ft | 443 kts | 229° |
| 2026-04-27 11:14 | 40.32500 | -27.03990 | 34147 ft | 443 kts | 229° |
| 2026-04-27 11:14 | 40.28192 | -27.09751 | 34140 ft | 442 kts | 229° |
| 2026-04-27 11:15 | 40.23888 | -27.15492 | 34143 ft | 442 kts | 229° |
| 2026-04-27 11:15 | 40.19575 | -27.21235 | 34138 ft | 441 kts | 229° |
| 2026-04-27 11:16 | 40.15292 | -27.26928 | 34137 ft | 441 kts | 229° |
| 2026-04-27 11:16 | 40.10990 | -27.32635 | 34133 ft | 440 kts | 229° |
| 2026-04-27 11:17 | 40.06690 | -27.38328 | 34128 ft | 440 kts | 229° |
| 2026-04-27 11:17 | 40.02386 | -27.44016 | 34131 ft | 439 kts | 229° |
| 2026-04-27 11:18 | 39.98781 | -27.48772 | 34126 ft | 440 kts | 229° |
| 2026-04-27 11:18 | 39.94489 | -27.54424 | 34125 ft | 440 kts | 229° |
| 2026-04-27 11:19 | 39.90198 | -27.60063 | 34121 ft | 440 kts | 229° |
| 2026-04-27 11:19 | 39.85860 | -27.65755 | 34125 ft | 440 kts | 229° |
| 2026-04-27 11:20 | 39.81547 | -27.71402 | 34118 ft | 439 kts | 229° |
| 2026-04-27 11:20 | 39.77241 | -27.77030 | 34118 ft | 439 kts | 228° |
| 2026-04-27 11:21 | 39.72953 | -27.82623 | 34117 ft | 439 kts | 228° |
| 2026-04-27 11:21 | 39.68633 | -27.88248 | 34115 ft | 439 kts | 228° |
| 2026-04-27 11:22 | 39.64331 | -27.93839 | 34117 ft | 439 kts | 228° |
| 2026-04-27 11:22 | 39.59997 | -27.99461 | 34114 ft | 438 kts | 228° |
| 2026-04-27 11:23 | 39.55682 | -28.05048 | 34116 ft | 438 kts | 228° |
| 2026-04-27 11:23 | 39.51359 | -28.10634 | 34114 ft | 438 kts | 228° |
| 2026-04-27 11:24 | 39.47079 | -28.16156 | 34113 ft | 437 kts | 228° |
| 2026-04-27 11:24 | 39.42765 | -28.21710 | 34113 ft | 437 kts | 228° |
| 2026-04-27 11:25 | 39.38440 | -28.27269 | 34114 ft | 437 kts | 228° |
| 2026-04-27 11:25 | 39.34135 | -28.32791 | 34111 ft | 437 kts | 228° |
| 2026-04-27 11:26 | 39.29814 | -28.38324 | 34111 ft | 437 kts | 228° |
| 2026-04-27 11:26 | 39.25490 | -28.43850 | 34106 ft | 437 kts | 228° |
| 2026-04-27 11:27 | 39.21170 | -28.49362 | 34108 ft | 436 kts | 228° |
| 2026-04-27 11:27 | 39.16841 | -28.54874 | 34108 ft | 436 kts | 228° |
| 2026-04-27 11:28 | 39.12511 | -28.60378 | 34110 ft | 436 kts | 228° |
| 2026-04-27 11:28 | 39.08186 | -28.65866 | 34107 ft | 436 kts | 228° |
| 2026-04-27 11:29 | 39.03890 | -28.71307 | 34104 ft | 436 kts | 228° |
| 2026-04-27 11:29 | 38.99535 | -28.76813 | 34108 ft | 436 kts | 228° |
| 2026-04-27 11:30 | 38.95203 | -28.82279 | 34103 ft | 436 kts | 228° |
| 2026-04-27 11:30 | 38.90907 | -28.87691 | 34104 ft | 436 kts | 228° |
| 2026-04-27 11:31 | 38.86548 | -28.93171 | 34105 ft | 436 kts | 228° |
| 2026-04-27 11:31 | 38.82237 | -28.98583 | 34107 ft | 436 kts | 228° |
| 2026-04-27 11:32 | 38.77892 | -29.04025 | 34105 ft | 435 kts | 228° |
| 2026-04-27 11:32 | 38.73571 | -29.09430 | 34108 ft | 435 kts | 228° |
| 2026-04-27 11:33 | 38.69221 | -29.14860 | 34107 ft | 436 kts | 228° |
| 2026-04-27 11:33 | 38.64876 | -29.20274 | 34102 ft | 436 kts | 228° |
| 2026-04-27 11:34 | 38.60529 | -29.25681 | 34104 ft | 436 kts | 228° |
| 2026-04-27 11:34 | 38.56177 | -29.31085 | 34107 ft | 436 kts | 228° |
| 2026-04-27 11:35 | 38.51819 | -29.36487 | 34102 ft | 436 kts | 228° |
| 2026-04-27 11:35 | 38.47461 | -29.41879 | 34100 ft | 435 kts | 228° |
| 2026-04-27 11:36 | 38.43137 | -29.47219 | 34099 ft | 435 kts | 228° |
| 2026-04-27 11:36 | 38.38789 | -29.52580 | 34099 ft | 435 kts | 228° |
| 2026-04-27 11:37 | 38.34412 | -29.57967 | 34101 ft | 435 kts | 227° |
| 2026-04-27 11:37 | 38.30055 | -29.63321 | 34098 ft | 435 kts | 227° |
| 2026-04-27 11:38 | 38.25709 | -29.68651 | 34097 ft | 434 kts | 227° |
| 2026-04-27 11:38 | 38.21372 | -29.73961 | 34096 ft | 434 kts | 227° |
| 2026-04-27 11:39 | 38.17028 | -29.79270 | 34094 ft | 434 kts | 227° |
| 2026-04-27 11:39 | 38.12655 | -29.84606 | 34093 ft | 434 kts | 227° |
| 2026-04-27 11:40 | 38.08307 | -29.89903 | 34094 ft | 434 kts | 227° |
| 2026-04-27 11:40 | 38.03943 | -29.95211 | 34090 ft | 434 kts | 227° |
| 2026-04-27 11:41 | 37.99578 | -30.00480 | 34093 ft | 435 kts | 225° |
| 2026-04-27 11:41 | 37.94998 | -30.05464 | 34089 ft | 435 kts | 224° |
| 2026-04-27 11:42 | 37.90386 | -30.10448 | 34095 ft | 435 kts | 224° |
| 2026-04-27 11:42 | 37.85780 | -30.15430 | 34091 ft | 435 kts | 224° |
| 2026-04-27 11:43 | 37.81186 | -30.20400 | 34087 ft | 435 kts | 224° |
| 2026-04-27 11:43 | 37.76568 | -30.25391 | 34088 ft | 436 kts | 224° |
| 2026-04-27 11:44 | 37.71970 | -30.30349 | 34088 ft | 436 kts | 224° |
| 2026-04-27 11:44 | 37.67346 | -30.35328 | 34088 ft | 435 kts | 224° |
| 2026-04-27 11:45 | 37.63504 | -30.39458 | 34090 ft | 435 kts | 224° |
| 2026-04-27 11:45 | 37.58113 | -30.45244 | 34089 ft | 435 kts | 224° |
| 2026-04-27 11:46 | 37.53497 | -30.50189 | 34090 ft | 435 kts | 224° |
| 2026-04-27 11:46 | 37.48898 | -30.55107 | 34089 ft | 436 kts | 224° |
| 2026-04-27 11:47 | 37.44286 | -30.60030 | 34085 ft | 436 kts | 224° |
| 2026-04-27 11:47 | 37.39651 | -30.64971 | 34088 ft | 435 kts | 224° |
| 2026-04-27 11:48 | 37.35031 | -30.69887 | 34087 ft | 436 kts | 224° |
| 2026-04-27 11:48 | 37.30387 | -30.74820 | 34085 ft | 436 kts | 224° |
| 2026-04-27 11:49 | 37.25753 | -30.79735 | 34085 ft | 436 kts | 224° |
| 2026-04-27 11:49 | 37.21142 | -30.84616 | 34086 ft | 435 kts | 224° |
| 2026-04-27 11:50 | 37.16513 | -30.89509 | 34081 ft | 435 kts | 224° |
| 2026-04-27 11:50 | 37.11881 | -30.94396 | 34084 ft | 435 kts | 224° |
| 2026-04-27 11:51 | 37.07229 | -30.99298 | 34085 ft | 435 kts | 224° |
| 2026-04-27 11:52 | 37.00302 | -31.06580 | 34086 ft | 436 kts | 224° |
| 2026-04-27 11:52 | 36.95642 | -31.11470 | 34085 ft | 436 kts | 224° |
| 2026-04-27 11:53 | 36.90987 | -31.16345 | 34086 ft | 436 kts | 224° |
| 2026-04-27 11:53 | 36.86349 | -31.21195 | 34086 ft | 435 kts | 224° |
| 2026-04-27 11:54 | 36.81688 | -31.26061 | 34086 ft | 435 kts | 224° |
| 2026-04-27 11:54 | 36.77078 | -31.30865 | 34081 ft | 435 kts | 224° |
| 2026-04-27 11:55 | 36.73175 | -31.34928 | 34087 ft | 435 kts | 223° |
| 2026-04-27 11:55 | 36.67776 | -31.40538 | 34084 ft | 436 kts | 223° |
| 2026-04-27 11:56 | 36.63111 | -31.45376 | 34090 ft | 437 kts | 223° |
| 2026-04-27 11:56 | 36.59189 | -31.49438 | 34081 ft | 436 kts | 223° |
| 2026-04-27 11:57 | 36.54548 | -31.54236 | 34085 ft | 436 kts | 223° |
| 2026-04-27 11:57 | 36.49866 | -31.59070 | 34081 ft | 436 kts | 223° |
| 2026-04-27 11:58 | 36.45185 | -31.63895 | 34086 ft | 437 kts | 223° |
| 2026-04-27 11:58 | 36.40529 | -31.68687 | 34084 ft | 437 kts | 223° |
| 2026-04-27 11:59 | 36.35821 | -31.73524 | 34085 ft | 437 kts | 223° |
| 2026-04-27 11:59 | 36.31122 | -31.78343 | 34082 ft | 438 kts | 223° |
| 2026-04-27 12:00 | 36.26429 | -31.83149 | 34084 ft | 438 kts | 223° |
| 2026-04-27 12:00 | 36.21730 | -31.87953 | 34083 ft | 438 kts | 223° |
| 2026-04-27 12:01 | 36.17058 | -31.92722 | 34084 ft | 438 kts | 223° |
| 2026-04-27 12:01 | 36.12344 | -31.97527 | 34086 ft | 438 kts | 223° |
| 2026-04-27 12:02 | 36.07631 | -32.02323 | 34082 ft | 438 kts | 223° |
| 2026-04-27 12:02 | 36.02914 | -32.07115 | 34087 ft | 439 kts | 223° |
| 2026-04-27 12:03 | 35.98176 | -32.11921 | 34085 ft | 440 kts | 223° |
| 2026-04-27 12:03 | 35.93474 | -32.16682 | 34085 ft | 440 kts | 223° |
| 2026-04-27 12:04 | 35.88737 | -32.21471 | 34083 ft | 440 kts | 222° |
| 2026-04-27 12:04 | 35.84005 | -32.26248 | 34086 ft | 441 kts | 222° |
| 2026-04-27 12:05 | 35.79248 | -32.31042 | 34085 ft | 441 kts | 222° |
| 2026-04-27 12:05 | 35.74482 | -32.35838 | 34085 ft | 441 kts | 222° |
| 2026-04-27 12:06 | 35.69725 | -32.40617 | 34085 ft | 441 kts | 222° |
| 2026-04-27 12:06 | 35.64965 | -32.45391 | 34104 ft | 442 kts | 222° |
| 2026-04-27 12:07 | 35.60202 | -32.50161 | 34075 ft | 442 kts | 222° |
| 2026-04-27 12:07 | 35.55425 | -32.54936 | 34102 ft | 442 kts | 222° |
| 2026-04-27 12:08 | 35.50642 | -32.59712 | 34072 ft | 443 kts | 222° |
| 2026-04-27 12:08 | 35.45862 | -32.64475 | 34088 ft | 443 kts | 222° |
| 2026-04-27 12:09 | 35.41081 | -32.69232 | 34091 ft | 443 kts | 222° |
| 2026-04-27 12:09 | 35.36279 | -32.74003 | 34091 ft | 443 kts | 222° |
| 2026-04-27 12:10 | 35.31488 | -32.78756 | 34075 ft | 443 kts | 222° |
| 2026-04-27 12:10 | 35.26665 | -32.83533 | 34078 ft | 443 kts | 222° |
| 2026-04-27 12:11 | 35.21889 | -32.88256 | 34081 ft | 445 kts | 222° |
| 2026-04-27 12:11 | 35.17060 | -32.93023 | 34080 ft | 445 kts | 222° |
| 2026-04-27 12:12 | 35.12242 | -32.97772 | 34078 ft | 445 kts | 222° |
| 2026-04-27 12:12 | 35.07424 | -33.02514 | 34082 ft | 445 kts | 221° |
| 2026-04-27 12:13 | 35.02588 | -33.07265 | 34081 ft | 445 kts | 221° |
| 2026-04-27 12:13 | 34.97746 | -33.12016 | 34082 ft | 446 kts | 221° |
| 2026-04-27 12:14 | 34.92934 | -33.16730 | 34086 ft | 446 kts | 221° |
| 2026-04-27 12:14 | 34.88089 | -33.21469 | 34086 ft | 446 kts | 221° |
| 2026-04-27 12:15 | 34.83236 | -33.26208 | 34084 ft | 447 kts | 221° |
| 2026-04-27 12:15 | 34.78389 | -33.30934 | 34086 ft | 447 kts | 221° |
| 2026-04-27 12:16 | 34.73519 | -33.35675 | 34085 ft | 447 kts | 221° |
| 2026-04-27 12:16 | 34.68655 | -33.40402 | 34083 ft | 447 kts | 221° |
| 2026-04-27 12:17 | 34.63788 | -33.45126 | 34081 ft | 448 kts | 221° |
| 2026-04-27 12:17 | 34.58912 | -33.49851 | 34086 ft | 448 kts | 221° |
| 2026-04-27 12:18 | 34.54031 | -33.54573 | 34085 ft | 448 kts | 221° |
| 2026-04-27 12:18 | 34.49153 | -33.59285 | 34084 ft | 449 kts | 221° |
| 2026-04-27 12:19 | 34.44287 | -33.63978 | 34080 ft | 449 kts | 221° |
| 2026-04-27 12:19 | 34.39403 | -33.68681 | 34080 ft | 449 kts | 221° |
| 2026-04-27 12:20 | 34.34507 | -33.73389 | 34083 ft | 449 kts | 221° |
| 2026-04-27 12:20 | 34.29604 | -33.78097 | 34088 ft | 450 kts | 221° |
| 2026-04-27 12:21 | 34.24696 | -33.82801 | 34086 ft | 450 kts | 221° |
| 2026-04-27 12:21 | 34.19822 | -33.87466 | 34084 ft | 450 kts | 221° |
| 2026-04-27 12:22 | 34.14902 | -33.92169 | 34089 ft | 450 kts | 221° |
| 2026-04-27 12:22 | 34.09989 | -33.96856 | 34086 ft | 451 kts | 221° |
| 2026-04-27 12:23 | 34.05064 | -34.01549 | 34089 ft | 450 kts | 221° |
| 2026-04-27 12:23 | 34.00146 | -34.06228 | 34085 ft | 451 kts | 221° |
| 2026-04-27 12:24 | 33.95185 | -34.10940 | 34087 ft | 451 kts | 221° |
| 2026-04-27 12:24 | 33.90272 | -34.15600 | 34089 ft | 452 kts | 221° |
| 2026-04-27 12:25 | 33.85321 | -34.20289 | 34220 ft | 455 kts | 221° |
| 2026-04-27 12:25 | 33.82825 | -34.22650 | 34527 ft | 454 kts | 221° |
| 2026-04-27 12:25 | 33.80360 | -34.24978 | 34880 ft | 451 kts | 221° |
| 2026-04-27 12:25 | 33.77895 | -34.27306 | 35235 ft | 449 kts | 221° |
| 2026-04-27 12:26 | 33.75432 | -34.29629 | 35562 ft | 448 kts | 221° |
| 2026-04-27 12:26 | 33.72992 | -34.31930 | 35830 ft | 448 kts | 221° |
| 2026-04-27 12:26 | 33.70528 | -34.34253 | 36013 ft | 449 kts | 221° |
| 2026-04-27 12:27 | 33.65641 | -34.38855 | 36078 ft | 449 kts | 221° |
| 2026-04-27 12:27 | 33.60706 | -34.43494 | 36089 ft | 449 kts | 221° |
| 2026-04-27 12:28 | 33.55761 | -34.48133 | 36095 ft | 448 kts | 221° |
| 2026-04-27 12:28 | 33.50872 | -34.52716 | 36095 ft | 449 kts | 221° |
| 2026-04-27 12:29 | 33.45941 | -34.57330 | 36099 ft | 449 kts | 221° |
| 2026-04-27 12:29 | 33.41022 | -34.61927 | 36097 ft | 449 kts | 221° |
| 2026-04-27 12:30 | 33.36092 | -34.66526 | 36097 ft | 450 kts | 221° |
| 2026-04-27 12:30 | 33.31137 | -34.71142 | 36099 ft | 450 kts | 221° |
| 2026-04-27 12:31 | 33.26191 | -34.75742 | 36097 ft | 450 kts | 221° |
| 2026-04-27 12:31 | 33.21259 | -34.80324 | 36102 ft | 451 kts | 221° |
| 2026-04-27 12:32 | 33.17128 | -34.84157 | 36097 ft | 451 kts | 221° |
| 2026-04-27 12:32 | 33.12146 | -34.88773 | 36101 ft | 451 kts | 221° |
| 2026-04-27 12:33 | 33.07201 | -34.93348 | 36101 ft | 451 kts | 221° |
| 2026-04-27 12:33 | 33.02243 | -34.97928 | 36100 ft | 452 kts | 221° |
| 2026-04-27 12:34 | 32.97429 | -35.02705 | 36105 ft | 450 kts | 225° |
| 2026-04-27 12:34 | 32.92771 | -35.07744 | 36102 ft | 450 kts | 225° |
| 2026-04-27 12:35 | 32.88124 | -35.12737 | 36104 ft | 450 kts | 225° |
| 2026-04-27 12:35 | 32.83497 | -35.17691 | 36105 ft | 450 kts | 225° |
| 2026-04-27 12:36 | 32.78805 | -35.22706 | 36105 ft | 450 kts | 225° |
| 2026-04-27 12:36 | 32.74177 | -35.27645 | 36110 ft | 450 kts | 225° |
| 2026-04-27 12:37 | 32.69510 | -35.32620 | 36111 ft | 450 kts | 225° |
| 2026-04-27 12:37 | 32.64855 | -35.37573 | 36113 ft | 450 kts | 225° |
| 2026-04-27 12:38 | 32.60174 | -35.42548 | 36112 ft | 450 kts | 225° |
| 2026-04-27 12:38 | 32.55506 | -35.47502 | 36108 ft | 450 kts | 225° |
| 2026-04-27 12:39 | 32.50819 | -35.52468 | 36104 ft | 451 kts | 225° |
| 2026-04-27 12:39 | 32.46138 | -35.57421 | 36102 ft | 451 kts | 225° |
| 2026-04-27 12:40 | 32.41468 | -35.62356 | 36124 ft | 451 kts | 225° |
| 2026-04-27 12:40 | 32.36786 | -35.67295 | 36122 ft | 451 kts | 225° |
| 2026-04-27 12:41 | 32.32084 | -35.72248 | 36121 ft | 451 kts | 225° |
| 2026-04-27 12:41 | 32.27413 | -35.77161 | 36118 ft | 451 kts | 225° |
| 2026-04-27 12:42 | 32.22710 | -35.82102 | 36123 ft | 451 kts | 225° |
| 2026-04-27 12:42 | 32.18016 | -35.87026 | 36120 ft | 451 kts | 225° |
| 2026-04-27 12:43 | 32.13360 | -35.91903 | 36121 ft | 450 kts | 225° |
| 2026-04-27 12:43 | 32.08676 | -35.96801 | 36125 ft | 450 kts | 225° |
| 2026-04-27 12:44 | 32.03962 | -36.01725 | 36126 ft | 450 kts | 225° |
| 2026-04-27 12:44 | 31.99262 | -36.06627 | 36125 ft | 450 kts | 225° |
| 2026-04-27 12:45 | 31.94578 | -36.11505 | 36126 ft | 450 kts | 225° |
| 2026-04-27 12:45 | 31.89872 | -36.16399 | 36128 ft | 450 kts | 225° |
| 2026-04-27 12:46 | 31.85216 | -36.21235 | 36124 ft | 449 kts | 225° |
| 2026-04-27 12:46 | 31.80493 | -36.26132 | 36129 ft | 449 kts | 225° |
| 2026-04-27 12:47 | 31.75809 | -36.30983 | 36129 ft | 448 kts | 225° |
| 2026-04-27 12:47 | 31.71127 | -36.35825 | 36129 ft | 448 kts | 225° |
| 2026-04-27 12:48 | 31.66478 | -36.40626 | 36131 ft | 447 kts | 225° |
| 2026-04-27 12:48 | 31.61786 | -36.45465 | 36132 ft | 446 kts | 226° |
| 2026-04-27 12:49 | 31.57144 | -36.50245 | 36133 ft | 446 kts | 226° |
| 2026-04-27 12:49 | 31.52480 | -36.55042 | 36135 ft | 446 kts | 226° |
| 2026-04-27 12:50 | 31.47823 | -36.59824 | 36134 ft | 445 kts | 226° |
| 2026-04-27 12:50 | 31.43179 | -36.64587 | 36139 ft | 444 kts | 226° |
| 2026-04-27 12:51 | 31.38513 | -36.69366 | 36140 ft | 443 kts | 226° |
| 2026-04-27 12:51 | 31.33889 | -36.74095 | 36141 ft | 443 kts | 226° |
| 2026-04-27 12:52 | 31.29245 | -36.78837 | 36140 ft | 442 kts | 226° |
| 2026-04-27 12:52 | 31.24635 | -36.83539 | 36141 ft | 440 kts | 227° |
| 2026-04-27 12:53 | 31.17684 | -36.90617 | 36142 ft | 439 kts | 227° |
| 2026-04-27 12:53 | 31.13086 | -36.95291 | 36143 ft | 438 kts | 227° |
| 2026-04-27 12:54 | 31.08482 | -36.99965 | 36143 ft | 437 kts | 227° |
| 2026-04-27 12:54 | 31.03917 | -37.04594 | 36144 ft | 436 kts | 227° |
| 2026-04-27 12:55 | 30.99317 | -37.09251 | 36143 ft | 435 kts | 227° |
| 2026-04-27 12:55 | 30.94746 | -37.13873 | 36144 ft | 435 kts | 228° |
| 2026-04-27 12:56 | 30.90204 | -37.18460 | 36145 ft | 434 kts | 228° |
| 2026-04-27 12:56 | 30.85610 | -37.23094 | 36145 ft | 433 kts | 228° |
| 2026-04-27 12:57 | 30.81083 | -37.27652 | 36148 ft | 432 kts | 228° |
| 2026-04-27 12:57 | 30.76529 | -37.32234 | 36151 ft | 432 kts | 228° |
| 2026-04-27 12:58 | 30.71992 | -37.36791 | 36147 ft | 431 kts | 228° |
| 2026-04-27 12:58 | 30.67457 | -37.41342 | 36155 ft | 431 kts | 229° |
| 2026-04-27 12:59 | 30.62903 | -37.45905 | 36151 ft | 430 kts | 229° |
| 2026-04-27 12:59 | 30.58399 | -37.50412 | 36154 ft | 430 kts | 229° |
| 2026-04-27 13:00 | 30.53871 | -37.54937 | 36153 ft | 429 kts | 229° |
| 2026-04-27 13:00 | 30.49344 | -37.59457 | 36154 ft | 429 kts | 229° |
| 2026-04-27 13:01 | 30.44804 | -37.63982 | 36154 ft | 428 kts | 229° |
| 2026-04-27 13:01 | 30.40278 | -37.68489 | 36150 ft | 428 kts | 229° |
| 2026-04-27 13:02 | 30.35761 | -37.72981 | 36153 ft | 429 kts | 229° |
| 2026-04-27 13:02 | 30.31230 | -37.77483 | 36152 ft | 430 kts | 229° |
| 2026-04-27 13:03 | 30.26672 | -37.82003 | 36151 ft | 431 kts | 229° |
| 2026-04-27 13:03 | 30.22126 | -37.86507 | 36166 ft | 431 kts | 229° |
| 2026-04-27 13:04 | 30.17572 | -37.91012 | 36170 ft | 431 kts | 229° |
| 2026-04-27 13:04 | 30.12993 | -37.95536 | 36162 ft | 432 kts | 228° |
| 2026-04-27 13:05 | 30.08432 | -38.00037 | 36160 ft | 432 kts | 228° |
| 2026-04-27 13:05 | 30.03893 | -38.04510 | 36164 ft | 432 kts | 228° |
| 2026-04-27 13:06 | 29.99311 | -38.09021 | 36165 ft | 432 kts | 228° |
| 2026-04-27 13:06 | 29.95479 | -38.12789 | 36168 ft | 432 kts | 228° |
| 2026-04-27 13:07 | 29.90926 | -38.17260 | 36166 ft | 432 kts | 228° |
| 2026-04-27 13:07 | 29.86345 | -38.21753 | 36167 ft | 432 kts | 228° |
| 2026-04-27 13:08 | 29.81752 | -38.26252 | 36168 ft | 431 kts | 228° |
| 2026-04-27 13:08 | 29.77207 | -38.30699 | 36170 ft | 431 kts | 228° |
| 2026-04-27 13:09 | 29.72636 | -38.35166 | 36168 ft | 430 kts | 228° |
| 2026-04-27 13:09 | 29.68076 | -38.39617 | 36172 ft | 430 kts | 228° |
| 2026-04-27 13:10 | 29.63524 | -38.44054 | 36171 ft | 430 kts | 228° |
| 2026-04-27 13:10 | 29.58952 | -38.48505 | 36175 ft | 429 kts | 228° |
| 2026-04-27 13:11 | 29.54407 | -38.52925 | 36175 ft | 428 kts | 228° |
| 2026-04-27 13:11 | 29.49862 | -38.57339 | 36177 ft | 428 kts | 228° |
| 2026-04-27 13:12 | 29.45318 | -38.61747 | 36176 ft | 427 kts | 228° |
| 2026-04-27 13:12 | 29.40762 | -38.66161 | 36180 ft | 427 kts | 229° |
| 2026-04-27 13:13 | 29.36227 | -38.70551 | 36177 ft | 427 kts | 228° |
| 2026-04-27 13:13 | 29.31684 | -38.74942 | 36178 ft | 427 kts | 228° |
| 2026-04-27 13:14 | 29.27129 | -38.79340 | 36177 ft | 427 kts | 229° |
| 2026-04-27 13:14 | 29.22586 | -38.83720 | 36179 ft | 427 kts | 229° |
| 2026-04-27 13:15 | 29.18074 | -38.88065 | 36177 ft | 427 kts | 229° |
| 2026-04-27 13:15 | 29.14013 | -38.91972 | 36179 ft | 427 kts | 229° |
| 2026-04-27 13:16 | 29.09512 | -38.96297 | 36174 ft | 427 kts | 229° |
| 2026-04-27 13:16 | 29.04981 | -39.00645 | 36171 ft | 427 kts | 229° |
| 2026-04-27 13:17 | 29.00408 | -39.05029 | 36182 ft | 427 kts | 229° |
| 2026-04-27 13:17 | 28.95871 | -39.09373 | 36173 ft | 426 kts | 229° |
| 2026-04-27 13:18 | 28.91328 | -39.13716 | 36180 ft | 426 kts | 229° |
| 2026-04-27 13:18 | 28.86758 | -39.18082 | 36178 ft | 426 kts | 229° |
| 2026-04-27 13:19 | 28.82214 | -39.22419 | 36185 ft | 426 kts | 229° |
| 2026-04-27 13:19 | 28.77668 | -39.26750 | 36184 ft | 426 kts | 229° |
| 2026-04-27 13:20 | 28.73116 | -39.31083 | 36186 ft | 426 kts | 229° |
| 2026-04-27 13:20 | 28.68595 | -39.35381 | 36184 ft | 425 kts | 229° |
| 2026-04-27 13:21 | 28.64061 | -39.39686 | 36186 ft | 424 kts | 229° |
| 2026-04-27 13:21 | 28.59520 | -39.43993 | 36186 ft | 424 kts | 229° |
| 2026-04-27 13:22 | 28.54970 | -39.48304 | 36185 ft | 424 kts | 229° |
| 2026-04-27 13:22 | 28.50437 | -39.52595 | 36185 ft | 424 kts | 229° |
| 2026-04-27 13:23 | 28.45894 | -39.56888 | 36186 ft | 424 kts | 229° |
| 2026-04-27 13:23 | 28.41383 | -39.61147 | 36187 ft | 424 kts | 229° |
| 2026-04-27 13:24 | 28.36849 | -39.65424 | 36187 ft | 424 kts | 229° |
| 2026-04-27 13:24 | 28.32301 | -39.69708 | 36191 ft | 424 kts | 229° |
| 2026-04-27 13:25 | 28.27771 | -39.73970 | 36192 ft | 424 kts | 229° |
| 2026-04-27 13:25 | 28.23203 | -39.78264 | 36191 ft | 424 kts | 229° |
| 2026-04-27 13:26 | 28.18692 | -39.82498 | 36197 ft | 424 kts | 229° |
| 2026-04-27 13:26 | 28.14119 | -39.86787 | 36192 ft | 424 kts | 229° |
| 2026-04-27 13:27 | 28.09567 | -39.91051 | 36190 ft | 424 kts | 229° |
| 2026-04-27 13:27 | 28.05042 | -39.95287 | 36190 ft | 424 kts | 229° |
| 2026-04-27 13:28 | 28.00532 | -39.99578 | 36191 ft | 420 kts | 232° |
| 2026-04-27 13:28 | 27.96647 | -40.04415 | 36195 ft | 413 kts | 238° |
| 2026-04-27 13:29 | 27.92910 | -40.09404 | 36193 ft | 415 kts | 237° |
| 2026-04-27 13:29 | 27.89150 | -40.14347 | 36191 ft | 416 kts | 237° |
| 2026-04-27 13:30 | 27.85374 | -40.19309 | 36192 ft | 415 kts | 237° |
| 2026-04-27 13:30 | 27.81605 | -40.24266 | 36196 ft | 415 kts | 237° |
| 2026-04-27 13:31 | 27.77858 | -40.29195 | 36197 ft | 415 kts | 237° |
| 2026-04-27 13:31 | 27.74092 | -40.34143 | 36192 ft | 415 kts | 237° |
| 2026-04-27 13:32 | 27.70326 | -40.39086 | 36205 ft | 415 kts | 237° |
| 2026-04-27 13:32 | 27.66556 | -40.44027 | 36204 ft | 415 kts | 237° |
| 2026-04-27 13:33 | 27.62800 | -40.48946 | 36199 ft | 415 kts | 237° |
| 2026-04-27 13:33 | 27.59027 | -40.53880 | 36198 ft | 415 kts | 237° |
| 2026-04-27 13:34 | 27.55242 | -40.58825 | 36196 ft | 415 kts | 237° |
| 2026-04-27 13:34 | 27.51457 | -40.63763 | 36197 ft | 415 kts | 237° |
| 2026-04-27 13:35 | 27.47694 | -40.68666 | 36195 ft | 415 kts | 237° |
| 2026-04-27 13:35 | 27.43930 | -40.73567 | 36195 ft | 415 kts | 237° |
| 2026-04-27 13:36 | 27.40145 | -40.78490 | 36197 ft | 415 kts | 237° |
| 2026-04-27 13:36 | 27.36370 | -40.83393 | 36199 ft | 415 kts | 237° |
| 2026-04-27 13:37 | 27.32578 | -40.88313 | 36195 ft | 415 kts | 237° |
| 2026-04-27 13:37 | 27.28790 | -40.93222 | 36197 ft | 415 kts | 237° |
| 2026-04-27 13:38 | 27.24999 | -40.98130 | 36199 ft | 416 kts | 237° |
| 2026-04-27 13:38 | 27.21206 | -41.03034 | 36197 ft | 416 kts | 237° |
| 2026-04-27 13:39 | 27.18053 | -41.07105 | 36195 ft | 415 kts | 237° |
| 2026-04-27 13:39 | 27.14253 | -41.12008 | 36191 ft | 415 kts | 237° |
| 2026-04-27 13:40 | 27.10461 | -41.16895 | 36195 ft | 415 kts | 237° |
| 2026-04-27 13:40 | 27.06656 | -41.21795 | 36200 ft | 416 kts | 237° |
| 2026-04-27 13:41 | 27.02873 | -41.26661 | 36196 ft | 416 kts | 237° |
| 2026-04-27 13:41 | 26.99063 | -41.31555 | 36201 ft | 416 kts | 237° |
| 2026-04-27 13:42 | 26.95252 | -41.36443 | 36195 ft | 416 kts | 237° |
| 2026-04-27 13:42 | 26.91438 | -41.41331 | 36208 ft | 416 kts | 237° |
| 2026-04-27 13:43 | 26.87600 | -41.46245 | 36210 ft | 416 kts | 237° |
| 2026-04-27 13:43 | 26.83807 | -41.51096 | 36203 ft | 417 kts | 237° |
| 2026-04-27 13:44 | 26.79983 | -41.55982 | 36201 ft | 417 kts | 237° |
| 2026-04-27 13:44 | 26.76148 | -41.60875 | 36204 ft | 418 kts | 237° |
| 2026-04-27 13:45 | 26.72319 | -41.65755 | 36204 ft | 418 kts | 237° |
| 2026-04-27 13:45 | 26.68471 | -41.70654 | 36202 ft | 418 kts | 237° |
| 2026-04-27 13:46 | 26.64633 | -41.75533 | 36204 ft | 417 kts | 237° |
| 2026-04-27 13:46 | 26.60790 | -41.80414 | 36205 ft | 417 kts | 237° |
| 2026-04-27 13:47 | 26.56961 | -41.85274 | 36205 ft | 417 kts | 237° |
| 2026-04-27 13:47 | 26.53111 | -41.90155 | 36207 ft | 418 kts | 237° |
| 2026-04-27 13:48 | 26.49274 | -41.95013 | 36206 ft | 418 kts | 237° |
| 2026-04-27 13:48 | 26.45428 | -41.99877 | 36200 ft | 417 kts | 237° |
| 2026-04-27 13:49 | 26.41574 | -42.04745 | 36208 ft | 418 kts | 237° |
| 2026-04-27 13:49 | 26.37718 | -42.09612 | 36204 ft | 418 kts | 237° |
| 2026-04-27 13:50 | 26.33861 | -42.14475 | 36200 ft | 418 kts | 237° |
| 2026-04-27 13:50 | 26.29995 | -42.19343 | 36199 ft | 418 kts | 236° |
| 2026-04-27 13:51 | 26.26163 | -42.24161 | 36201 ft | 418 kts | 236° |
| 2026-04-27 13:51 | 26.22301 | -42.29014 | 36206 ft | 418 kts | 236° |
| 2026-04-27 13:52 | 26.18447 | -42.33852 | 36204 ft | 418 kts | 236° |
| 2026-04-27 13:52 | 26.14570 | -42.38713 | 36205 ft | 418 kts | 236° |
| 2026-04-27 13:53 | 26.08765 | -42.45981 | 36206 ft | 419 kts | 236° |
| 2026-04-27 13:54 | 26.04893 | -42.50822 | 36205 ft | 419 kts | 236° |
| 2026-04-27 13:54 | 26.01038 | -42.55637 | 36205 ft | 419 kts | 236° |
| 2026-04-27 13:55 | 25.97145 | -42.60494 | 36206 ft | 419 kts | 236° |
| 2026-04-27 13:55 | 25.93265 | -42.65330 | 36203 ft | 419 kts | 236° |
| 2026-04-27 13:56 | 25.89384 | -42.70162 | 36203 ft | 419 kts | 236° |
| 2026-04-27 13:56 | 25.85501 | -42.74991 | 36209 ft | 419 kts | 236° |
| 2026-04-27 13:57 | 25.81578 | -42.79865 | 36205 ft | 419 kts | 236° |
| 2026-04-27 13:57 | 25.77695 | -42.84684 | 36208 ft | 419 kts | 236° |
| 2026-04-27 13:58 | 25.73771 | -42.89549 | 36206 ft | 420 kts | 236° |
| 2026-04-27 13:58 | 25.69890 | -42.94355 | 36207 ft | 420 kts | 236° |
| 2026-04-27 13:59 | 25.65993 | -42.99175 | 36204 ft | 419 kts | 236° |
| 2026-04-27 13:59 | 25.62082 | -43.04008 | 36206 ft | 419 kts | 236° |
| 2026-04-27 14:00 | 25.58185 | -43.08819 | 36211 ft | 420 kts | 236° |
| 2026-04-27 14:00 | 25.54283 | -43.13631 | 36206 ft | 420 kts | 236° |
| 2026-04-27 14:01 | 25.50369 | -43.18453 | 36206 ft | 420 kts | 236° |
| 2026-04-27 14:01 | 25.46433 | -43.23295 | 36199 ft | 420 kts | 236° |
| 2026-04-27 14:02 | 25.42538 | -43.28083 | 36213 ft | 420 kts | 236° |
| 2026-04-27 14:02 | 25.38617 | -43.32898 | 36211 ft | 421 kts | 236° |
| 2026-04-27 14:03 | 25.34675 | -43.37735 | 36210 ft | 421 kts | 236° |
| 2026-04-27 14:03 | 25.30739 | -43.42557 | 36209 ft | 422 kts | 236° |
| 2026-04-27 14:04 | 25.26804 | -43.47374 | 36213 ft | 422 kts | 236° |
| 2026-04-27 14:04 | 25.22864 | -43.52191 | 36212 ft | 422 kts | 236° |
| 2026-04-27 14:05 | 25.18930 | -43.56997 | 36205 ft | 422 kts | 236° |
| 2026-04-27 14:05 | 25.14986 | -43.61810 | 36211 ft | 422 kts | 235° |
| 2026-04-27 14:06 | 25.11036 | -43.66625 | 36213 ft | 423 kts | 235° |
| 2026-04-27 14:06 | 25.07755 | -43.70620 | 36208 ft | 423 kts | 235° |
| 2026-04-27 14:07 | 25.03774 | -43.75465 | 36211 ft | 423 kts | 235° |
| 2026-04-27 14:07 | 24.99834 | -43.80253 | 36212 ft | 424 kts | 235° |
| 2026-04-27 14:08 | 24.95853 | -43.85086 | 36210 ft | 424 kts | 235° |
| 2026-04-27 14:08 | 24.91885 | -43.89899 | 36208 ft | 425 kts | 235° |
| 2026-04-27 14:09 | 24.87909 | -43.94717 | 36209 ft | 425 kts | 235° |
| 2026-04-27 14:09 | 24.83917 | -43.99550 | 36209 ft | 426 kts | 235° |
| 2026-04-27 14:10 | 24.79904 | -44.04401 | 36206 ft | 426 kts | 235° |
| 2026-04-27 14:10 | 24.75930 | -44.09201 | 36206 ft | 425 kts | 235° |
| 2026-04-27 14:11 | 24.71920 | -44.14039 | 36208 ft | 425 kts | 235° |
| 2026-04-27 14:11 | 24.67930 | -44.18849 | 36206 ft | 426 kts | 235° |
| 2026-04-27 14:12 | 24.63950 | -44.23642 | 36211 ft | 426 kts | 235° |
| 2026-04-27 14:12 | 24.59912 | -44.28499 | 36206 ft | 426 kts | 234° |
| 2026-04-27 14:13 | 24.55905 | -44.33315 | 36204 ft | 426 kts | 234° |
| 2026-04-27 14:13 | 24.51897 | -44.38126 | 36215 ft | 427 kts | 234° |
| 2026-04-27 14:14 | 24.47879 | -44.42945 | 36203 ft | 427 kts | 234° |
| 2026-04-27 14:14 | 24.43893 | -44.47721 | 36217 ft | 427 kts | 234° |
| 2026-04-27 14:15 | 24.39876 | -44.52528 | 36214 ft | 427 kts | 234° |
| 2026-04-27 14:15 | 24.35841 | -44.57354 | 36207 ft | 428 kts | 234° |
| 2026-04-27 14:16 | 24.31816 | -44.62161 | 36207 ft | 428 kts | 234° |
| 2026-04-27 14:16 | 24.27756 | -44.67005 | 36206 ft | 428 kts | 234° |
| 2026-04-27 14:17 | 24.23743 | -44.71789 | 36208 ft | 429 kts | 234° |
| 2026-04-27 14:17 | 24.19690 | -44.76616 | 36208 ft | 429 kts | 234° |
| 2026-04-27 14:18 | 24.15599 | -44.81483 | 36210 ft | 429 kts | 234° |
| 2026-04-27 14:18 | 24.11548 | -44.86297 | 36208 ft | 429 kts | 234° |
| 2026-04-27 14:19 | 24.07505 | -44.91100 | 36206 ft | 430 kts | 234° |
| 2026-04-27 14:19 | 24.03447 | -44.95913 | 36207 ft | 430 kts | 234° |
| 2026-04-27 14:20 | 23.99076 | -45.00447 | 36208 ft | 437 kts | 226° |
| 2026-04-27 14:20 | 23.94021 | -45.04232 | 36213 ft | 444 kts | 220° |
| 2026-04-27 14:21 | 23.88782 | -45.07858 | 36202 ft | 444 kts | 220° |
| 2026-04-27 14:21 | 23.83540 | -45.11512 | 36202 ft | 444 kts | 220° |
| 2026-04-27 14:22 | 23.78326 | -45.15153 | 36212 ft | 444 kts | 220° |
| 2026-04-27 14:22 | 23.73147 | -45.18768 | 36206 ft | 445 kts | 220° |
| 2026-04-27 14:23 | 23.67929 | -45.22407 | 36204 ft | 445 kts | 220° |
| 2026-04-27 14:23 | 23.62695 | -45.26053 | 36203 ft | 446 kts | 220° |
| 2026-04-27 14:24 | 23.57459 | -45.29697 | 36206 ft | 446 kts | 220° |
| 2026-04-27 14:24 | 23.52187 | -45.33362 | 36206 ft | 447 kts | 220° |
| 2026-04-27 14:25 | 23.46955 | -45.36996 | 36203 ft | 447 kts | 220° |
| 2026-04-27 14:25 | 23.41690 | -45.40649 | 36205 ft | 447 kts | 220° |
| 2026-04-27 14:26 | 23.36469 | -45.44269 | 36205 ft | 448 kts | 220° |
| 2026-04-27 14:26 | 23.31188 | -45.47927 | 36206 ft | 448 kts | 220° |
| 2026-04-27 14:27 | 23.26780 | -45.50976 | 36205 ft | 448 kts | 220° |
| 2026-04-27 14:27 | 23.21496 | -45.54629 | 36206 ft | 448 kts | 220° |
| 2026-04-27 14:28 | 23.16237 | -45.58261 | 36204 ft | 448 kts | 220° |
| 2026-04-27 14:28 | 23.10956 | -45.61906 | 36207 ft | 449 kts | 219° |
| 2026-04-27 14:29 | 23.05672 | -45.65549 | 36203 ft | 449 kts | 219° |
| 2026-04-27 14:29 | 23.00387 | -45.69189 | 36204 ft | 449 kts | 219° |
| 2026-04-27 14:30 | 22.95108 | -45.72822 | 36202 ft | 449 kts | 219° |
| 2026-04-27 14:30 | 22.89817 | -45.76459 | 36204 ft | 449 kts | 219° |
| 2026-04-27 14:31 | 22.84530 | -45.80090 | 36199 ft | 450 kts | 219° |
| 2026-04-27 14:31 | 22.79223 | -45.83732 | 36204 ft | 450 kts | 219° |
| 2026-04-27 14:32 | 22.73927 | -45.87363 | 36204 ft | 451 kts | 219° |
| 2026-04-27 14:32 | 22.68598 | -45.91013 | 36203 ft | 451 kts | 219° |
| 2026-04-27 14:33 | 22.63281 | -45.94651 | 36200 ft | 452 kts | 219° |
| 2026-04-27 14:33 | 22.57972 | -45.98280 | 36202 ft | 452 kts | 219° |
| 2026-04-27 14:34 | 22.52644 | -46.01919 | 36200 ft | 453 kts | 219° |
| 2026-04-27 14:34 | 22.47305 | -46.05562 | 36201 ft | 453 kts | 219° |
| 2026-04-27 14:35 | 22.41977 | -46.09194 | 36200 ft | 453 kts | 219° |
| 2026-04-27 14:35 | 22.36628 | -46.12837 | 36200 ft | 453 kts | 219° |
| 2026-04-27 14:36 | 22.31283 | -46.16475 | 36201 ft | 454 kts | 219° |
| 2026-04-27 14:36 | 22.25933 | -46.20112 | 36197 ft | 454 kts | 219° |
| 2026-04-27 14:37 | 22.20594 | -46.23739 | 36198 ft | 454 kts | 219° |
| 2026-04-27 14:37 | 22.15226 | -46.27382 | 36197 ft | 455 kts | 218° |
| 2026-04-27 14:38 | 22.09865 | -46.31016 | 36199 ft | 455 kts | 218° |
| 2026-04-27 14:38 | 22.04496 | -46.34653 | 36195 ft | 455 kts | 218° |
| 2026-04-27 14:39 | 21.99098 | -46.38306 | 36195 ft | 455 kts | 218° |
| 2026-04-27 14:39 | 21.93766 | -46.41911 | 36189 ft | 455 kts | 218° |
| 2026-04-27 14:40 | 21.88371 | -46.45556 | 36208 ft | 455 kts | 218° |
| 2026-04-27 14:40 | 21.82986 | -46.49190 | 36203 ft | 455 kts | 218° |
| 2026-04-27 14:41 | 21.77605 | -46.52819 | 36204 ft | 455 kts | 218° |
| 2026-04-27 14:41 | 21.72244 | -46.56431 | 36200 ft | 455 kts | 218° |
| 2026-04-27 14:42 | 21.66879 | -46.60042 | 36197 ft | 456 kts | 218° |
| 2026-04-27 14:42 | 21.61486 | -46.63669 | 36177 ft | 455 kts | 218° |
| 2026-04-27 14:43 | 21.56124 | -46.67272 | 36193 ft | 455 kts | 218° |
| 2026-04-27 14:43 | 21.50731 | -46.70892 | 36193 ft | 456 kts | 218° |
| 2026-04-27 14:44 | 21.45354 | -46.74499 | 36193 ft | 456 kts | 218° |
| 2026-04-27 14:44 | 21.39969 | -46.78108 | 36188 ft | 456 kts | 218° |
| 2026-04-27 14:45 | 21.34573 | -46.81721 | 36186 ft | 457 kts | 218° |
| 2026-04-27 14:45 | 21.29168 | -46.85336 | 36183 ft | 456 kts | 217° |
| 2026-04-27 14:46 | 21.23777 | -46.88939 | 36188 ft | 457 kts | 217° |
| 2026-04-27 14:46 | 21.18376 | -46.92546 | 36179 ft | 457 kts | 217° |
| 2026-04-27 14:47 | 21.12930 | -46.96180 | 36188 ft | 458 kts | 217° |
| 2026-04-27 14:47 | 21.07514 | -46.99791 | 36184 ft | 458 kts | 217° |
| 2026-04-27 14:48 | 21.02098 | -47.03397 | 36183 ft | 458 kts | 217° |
| 2026-04-27 14:48 | 20.93978 | -47.08800 | 36186 ft | 459 kts | 217° |
| 2026-04-27 14:49 | 20.88545 | -47.12411 | 36188 ft | 459 kts | 217° |
| 2026-04-27 14:49 | 20.83135 | -47.16003 | 36188 ft | 459 kts | 217° |
| 2026-04-27 14:50 | 20.77680 | -47.19623 | 36190 ft | 460 kts | 217° |
| 2026-04-27 14:50 | 20.73160 | -47.22619 | 36189 ft | 460 kts | 217° |
| 2026-04-27 14:51 | 20.67691 | -47.26242 | 36183 ft | 460 kts | 216° |
| 2026-04-27 14:51 | 20.62231 | -47.29856 | 36183 ft | 460 kts | 216° |
| 2026-04-27 14:52 | 20.56773 | -47.33465 | 36182 ft | 461 kts | 216° |
| 2026-04-27 14:52 | 20.51288 | -47.37089 | 36182 ft | 461 kts | 216° |
| 2026-04-27 14:53 | 20.45832 | -47.40691 | 36182 ft | 461 kts | 216° |
| 2026-04-27 14:53 | 20.40363 | -47.44298 | 36182 ft | 462 kts | 216° |
| 2026-04-27 14:54 | 20.34932 | -47.47878 | 36184 ft | 462 kts | 216° |
| 2026-04-27 14:54 | 20.29423 | -47.51505 | 36179 ft | 463 kts | 216° |
| 2026-04-27 14:55 | 20.23986 | -47.55083 | 36179 ft | 463 kts | 216° |
| 2026-04-27 14:55 | 20.18501 | -47.58688 | 36177 ft | 462 kts | 216° |
| 2026-04-27 14:56 | 20.12988 | -47.62309 | 36180 ft | 463 kts | 216° |
| 2026-04-27 14:56 | 20.07505 | -47.65907 | 36180 ft | 463 kts | 216° |
| 2026-04-27 14:57 | 20.02011 | -47.69511 | 36180 ft | 464 kts | 216° |
| 2026-04-27 14:57 | 19.96545 | -47.73092 | 36175 ft | 464 kts | 216° |
| 2026-04-27 14:58 | 19.90998 | -47.76723 | 36175 ft | 464 kts | 216° |
| 2026-04-27 14:58 | 19.87932 | -47.78729 | 36173 ft | 464 kts | 216° |
| 2026-04-27 14:59 | 19.84208 | -47.81163 | 36173 ft | 464 kts | 216° |
| 2026-04-27 14:59 | 19.78694 | -47.84767 | 36172 ft | 464 kts | 216° |
| 2026-04-27 15:00 | 19.73207 | -47.88349 | 36171 ft | 464 kts | 216° |
| 2026-04-27 15:00 | 19.67700 | -47.91942 | 36176 ft | 464 kts | 216° |
| 2026-04-27 15:01 | 19.62170 | -47.95547 | 36175 ft | 464 kts | 216° |
| 2026-04-27 15:01 | 19.56659 | -47.99136 | 36164 ft | 465 kts | 216° |
| 2026-04-27 15:02 | 19.51142 | -48.02726 | 36171 ft | 464 kts | 215° |
| 2026-04-27 15:02 | 19.45614 | -48.06321 | 36181 ft | 464 kts | 215° |
| 2026-04-27 15:03 | 19.40113 | -48.09895 | 36167 ft | 464 kts | 215° |
| 2026-04-27 15:03 | 19.34609 | -48.13468 | 36162 ft | 464 kts | 215° |
| 2026-04-27 15:04 | 19.29068 | -48.17063 | 36172 ft | 465 kts | 215° |
| 2026-04-27 15:04 | 19.23558 | -48.20634 | 36172 ft | 465 kts | 215° |
| 2026-04-27 15:05 | 19.18039 | -48.24208 | 36165 ft | 464 kts | 215° |
| 2026-04-27 15:05 | 19.12526 | -48.27776 | 36166 ft | 464 kts | 215° |
| 2026-04-27 15:06 | 19.07001 | -48.31349 | 36158 ft | 465 kts | 215° |
| 2026-04-27 15:06 | 19.01485 | -48.34912 | 36160 ft | 465 kts | 215° |
| 2026-04-27 15:07 | 18.95943 | -48.38491 | 36166 ft | 465 kts | 215° |
| 2026-04-27 15:07 | 18.90423 | -48.42052 | 36162 ft | 465 kts | 215° |
| 2026-04-27 15:08 | 18.84898 | -48.45613 | 36158 ft | 465 kts | 215° |
| 2026-04-27 15:08 | 18.79370 | -48.49174 | 36156 ft | 465 kts | 215° |
| 2026-04-27 15:09 | 18.73807 | -48.52754 | 36155 ft | 465 kts | 215° |
| 2026-04-27 15:09 | 18.68318 | -48.56284 | 36153 ft | 465 kts | 215° |
| 2026-04-27 15:10 | 18.62760 | -48.59855 | 36158 ft | 465 kts | 215° |
| 2026-04-27 15:10 | 18.57222 | -48.63411 | 36157 ft | 466 kts | 215° |
| 2026-04-27 15:11 | 18.51677 | -48.66969 | 36151 ft | 466 kts | 215° |
| 2026-04-27 15:11 | 18.46103 | -48.70543 | 36152 ft | 466 kts | 214° |
| 2026-04-27 15:12 | 18.40552 | -48.74099 | 36153 ft | 466 kts | 214° |
| 2026-04-27 15:12 | 18.34998 | -48.77654 | 36152 ft | 466 kts | 214° |
| 2026-04-27 15:13 | 18.29444 | -48.81207 | 36152 ft | 466 kts | 214° |
| 2026-04-27 15:13 | 18.23917 | -48.84739 | 36152 ft | 466 kts | 214° |
| 2026-04-27 15:14 | 18.18391 | -48.88269 | 36153 ft | 466 kts | 214° |
| 2026-04-27 15:14 | 18.12806 | -48.91834 | 36148 ft | 467 kts | 214° |
| 2026-04-27 15:15 | 18.08186 | -48.94782 | 36147 ft | 467 kts | 214° |
| 2026-04-27 15:15 | 18.02602 | -48.98341 | 36147 ft | 467 kts | 214° |
| 2026-04-27 15:16 | 17.96958 | -49.01663 | 36141 ft | 468 kts | 209° |
| 2026-04-27 15:16 | 17.91031 | -49.04622 | 36145 ft | 469 kts | 208° |
| 2026-04-27 15:17 | 17.85152 | -49.07527 | 36142 ft | 469 kts | 208° |
| 2026-04-27 15:17 | 17.79214 | -49.10499 | 36141 ft | 469 kts | 208° |
| 2026-04-27 15:18 | 17.73320 | -49.13470 | 36143 ft | 470 kts | 208° |
| 2026-04-27 15:18 | 17.67461 | -49.16427 | 36141 ft | 470 kts | 208° |
| 2026-04-27 15:19 | 17.61529 | -49.19418 | 36136 ft | 470 kts | 208° |
| 2026-04-27 15:19 | 17.55617 | -49.22395 | 36139 ft | 470 kts | 208° |
| 2026-04-27 15:20 | 17.49744 | -49.25349 | 36138 ft | 471 kts | 208° |
| 2026-04-27 15:20 | 17.43834 | -49.28321 | 36136 ft | 471 kts | 208° |
| 2026-04-27 15:21 | 17.37897 | -49.31303 | 36138 ft | 471 kts | 208° |
| 2026-04-27 15:21 | 17.31964 | -49.34282 | 36137 ft | 471 kts | 208° |
| 2026-04-27 15:22 | 17.26032 | -49.37258 | 36134 ft | 472 kts | 208° |
| 2026-04-27 15:22 | 17.20102 | -49.40230 | 36127 ft | 472 kts | 208° |
| 2026-04-27 15:23 | 17.14204 | -49.43185 | 36130 ft | 472 kts | 208° |
| 2026-04-27 15:23 | 17.08242 | -49.46170 | 36134 ft | 472 kts | 208° |
| 2026-04-27 15:24 | 17.02345 | -49.49120 | 36123 ft | 472 kts | 208° |
| 2026-04-27 15:24 | 16.96433 | -49.52075 | 36126 ft | 472 kts | 208° |
| 2026-04-27 15:25 | 16.90477 | -49.55050 | 36130 ft | 472 kts | 208° |
| 2026-04-27 15:25 | 16.84548 | -49.58010 | 36125 ft | 472 kts | 208° |
| 2026-04-27 15:26 | 16.78599 | -49.60977 | 36126 ft | 472 kts | 208° |
| 2026-04-27 15:26 | 16.72666 | -49.63935 | 36125 ft | 473 kts | 207° |
| 2026-04-27 15:27 | 16.66714 | -49.66900 | 36124 ft | 473 kts | 207° |
| 2026-04-27 15:27 | 16.60770 | -49.69859 | 36121 ft | 473 kts | 207° |
| 2026-04-27 15:28 | 16.54834 | -49.72812 | 36121 ft | 473 kts | 207° |
| 2026-04-27 15:28 | 16.48878 | -49.75773 | 36123 ft | 473 kts | 207° |
| 2026-04-27 15:29 | 16.42949 | -49.78719 | 36125 ft | 473 kts | 207° |
| 2026-04-27 15:29 | 16.36988 | -49.81678 | 36123 ft | 473 kts | 207° |
| 2026-04-27 15:30 | 16.31042 | -49.84628 | 36120 ft | 473 kts | 207° |
| 2026-04-27 15:30 | 16.25079 | -49.87585 | 36121 ft | 473 kts | 207° |
| 2026-04-27 15:31 | 16.19137 | -49.90529 | 36119 ft | 474 kts | 207° |
| 2026-04-27 15:31 | 16.13189 | -49.93474 | 36119 ft | 474 kts | 207° |
| 2026-04-27 15:32 | 16.07187 | -49.96444 | 36120 ft | 474 kts | 207° |
| 2026-04-27 15:32 | 16.01250 | -49.99381 | 36117 ft | 474 kts | 207° |
| 2026-04-27 15:33 | 15.95276 | -50.02272 | 36117 ft | 474 kts | 206° |
| 2026-04-27 15:33 | 15.89230 | -50.05106 | 36111 ft | 473 kts | 206° |
| 2026-04-27 15:34 | 15.83248 | -50.07906 | 36115 ft | 473 kts | 206° |
| 2026-04-27 15:34 | 15.77246 | -50.10728 | 36113 ft | 473 kts | 206° |
| 2026-04-27 15:35 | 15.71237 | -50.13558 | 36110 ft | 474 kts | 206° |
| 2026-04-27 15:35 | 15.65225 | -50.16389 | 36109 ft | 475 kts | 206° |
| 2026-04-27 15:36 | 15.59155 | -50.19245 | 36107 ft | 475 kts | 206° |
| 2026-04-27 15:36 | 15.53179 | -50.22054 | 36102 ft | 474 kts | 206° |
| 2026-04-27 15:37 | 15.47123 | -50.24900 | 36108 ft | 474 kts | 206° |
| 2026-04-27 15:37 | 15.41167 | -50.27696 | 36109 ft | 473 kts | 206° |
| 2026-04-27 15:38 | 15.35112 | -50.30537 | 36112 ft | 474 kts | 206° |
| 2026-04-27 15:38 | 15.29123 | -50.33346 | 36110 ft | 475 kts | 206° |
| 2026-04-27 15:39 | 15.23050 | -50.36192 | 36105 ft | 476 kts | 206° |
| 2026-04-27 15:39 | 15.17996 | -50.38559 | 36105 ft | 476 kts | 206° |
| 2026-04-27 15:40 | 15.11904 | -50.41410 | 36101 ft | 476 kts | 206° |
| 2026-04-27 15:40 | 15.05846 | -50.44243 | 36101 ft | 476 kts | 206° |
| 2026-04-27 15:41 | 14.99860 | -50.47041 | 36099 ft | 475 kts | 206° |
| 2026-04-27 15:41 | 14.93794 | -50.49876 | 36102 ft | 474 kts | 206° |
| 2026-04-27 15:42 | 14.87797 | -50.52676 | 36098 ft | 471 kts | 206° |
| 2026-04-27 15:42 | 14.81860 | -50.55446 | 36098 ft | 469 kts | 205° |
| 2026-04-27 15:43 | 14.75876 | -50.58236 | 36105 ft | 470 kts | 206° |
| 2026-04-27 15:43 | 14.69848 | -50.61045 | 36100 ft | 473 kts | 205° |
| 2026-04-27 15:44 | 14.63824 | -50.63852 | 36102 ft | 475 kts | 206° |
| 2026-04-27 15:44 | 14.57818 | -50.66649 | 36104 ft | 478 kts | 205° |
| 2026-04-27 15:45 | 14.51696 | -50.69498 | 36099 ft | 480 kts | 205° |
| 2026-04-27 15:45 | 14.45611 | -50.72327 | 36094 ft | 478 kts | 205° |
| 2026-04-27 15:46 | 14.39577 | -50.75128 | 36090 ft | 475 kts | 205° |
| 2026-04-27 15:46 | 14.33545 | -50.77929 | 36086 ft | 473 kts | 205° |
| 2026-04-27 15:47 | 14.27514 | -50.80728 | 36094 ft | 473 kts | 205° |
| 2026-04-27 15:47 | 14.21531 | -50.83504 | 36098 ft | 475 kts | 205° |
| 2026-04-27 15:48 | 14.15465 | -50.86317 | 36095 ft | 478 kts | 205° |
| 2026-04-27 15:49 | 14.06320 | -50.90552 | 36088 ft | 481 kts | 205° |
| 2026-04-27 15:49 | 14.00219 | -50.93377 | 36087 ft | 481 kts | 205° |
| 2026-04-27 15:50 | 13.94114 | -50.96200 | 36089 ft | 481 kts | 205° |
| 2026-04-27 15:50 | 13.87952 | -50.99049 | 36087 ft | 481 kts | 205° |
| 2026-04-27 15:51 | 13.81842 | -51.01872 | 36088 ft | 482 kts | 205° |
| 2026-04-27 15:51 | 13.75706 | -51.04705 | 36089 ft | 483 kts | 205° |
| 2026-04-27 15:52 | 13.69555 | -51.07544 | 36086 ft | 484 kts | 204° |
| 2026-04-27 15:52 | 13.63405 | -51.10381 | 36084 ft | 485 kts | 204° |
| 2026-04-27 15:53 | 13.57255 | -51.13216 | 36080 ft | 484 kts | 204° |
| 2026-04-27 15:53 | 13.51119 | -51.16043 | 36083 ft | 482 kts | 204° |
| 2026-04-27 15:54 | 13.44986 | -51.18867 | 36081 ft | 481 kts | 204° |
| 2026-04-27 15:54 | 13.38870 | -51.21682 | 36078 ft | 481 kts | 204° |
| 2026-04-27 15:55 | 13.32747 | -51.24498 | 36079 ft | 481 kts | 204° |
| 2026-04-27 15:55 | 13.26648 | -51.27302 | 36078 ft | 481 kts | 204° |
| 2026-04-27 15:56 | 13.20485 | -51.30134 | 36078 ft | 482 kts | 204° |
| 2026-04-27 15:56 | 13.14396 | -51.32930 | 36077 ft | 483 kts | 204° |
| 2026-04-27 15:57 | 13.08249 | -51.35751 | 36080 ft | 483 kts | 204° |
| 2026-04-27 15:57 | 13.02111 | -51.38566 | 36076 ft | 484 kts | 204° |
| 2026-04-27 15:58 | 12.95954 | -51.41389 | 36074 ft | 484 kts | 204° |
| 2026-04-27 15:58 | 12.89790 | -51.44213 | 36075 ft | 484 kts | 204° |
| 2026-04-27 15:59 | 12.83649 | -51.47026 | 36071 ft | 484 kts | 204° |
| 2026-04-27 15:59 | 12.77486 | -51.49846 | 36076 ft | 484 kts | 204° |
| 2026-04-27 16:00 | 12.71321 | -51.52666 | 36071 ft | 485 kts | 204° |
| 2026-04-27 16:00 | 12.65121 | -51.55500 | 36069 ft | 485 kts | 203° |
| 2026-04-27 16:01 | 12.58994 | -51.58300 | 36071 ft | 485 kts | 203° |
| 2026-04-27 16:01 | 12.52783 | -51.61137 | 36072 ft | 485 kts | 203° |
| 2026-04-27 16:02 | 12.46648 | -51.63937 | 36059 ft | 485 kts | 203° |
| 2026-04-27 16:02 | 12.40475 | -51.66754 | 36070 ft | 485 kts | 203° |
| 2026-04-27 16:03 | 12.35317 | -51.69106 | 36072 ft | 485 kts | 203° |
| 2026-04-27 16:03 | 12.29128 | -51.71927 | 36066 ft | 486 kts | 203° |
| 2026-04-27 16:04 | 12.22946 | -51.74744 | 36063 ft | 487 kts | 203° |
| 2026-04-27 16:04 | 12.16732 | -51.77573 | 36063 ft | 487 kts | 203° |
| 2026-04-27 16:05 | 12.10507 | -51.80405 | 36064 ft | 487 kts | 203° |
| 2026-04-27 16:05 | 12.04290 | -51.83234 | 36060 ft | 487 kts | 203° |
| 2026-04-27 16:06 | 11.98122 | -51.86039 | 36058 ft | 487 kts | 203° |
| 2026-04-27 16:06 | 11.91896 | -51.88868 | 36060 ft | 487 kts | 203° |
| 2026-04-27 16:07 | 11.85718 | -51.91674 | 36059 ft | 487 kts | 202° |
| 2026-04-27 16:07 | 11.79499 | -51.94496 | 36057 ft | 487 kts | 202° |
| 2026-04-27 16:08 | 11.73340 | -51.97292 | 36057 ft | 487 kts | 203° |
| 2026-04-27 16:08 | 11.67142 | -52.00102 | 36053 ft | 488 kts | 203° |
| 2026-04-27 16:09 | 11.60914 | -52.02924 | 36056 ft | 488 kts | 202° |
| 2026-04-27 16:09 | 11.51546 | -52.07169 | 36051 ft | 489 kts | 202° |
| 2026-04-27 16:10 | 11.39081 | -52.12811 | 36051 ft | 489 kts | 202° |
| 2026-04-27 16:11 | 11.29753 | -52.17029 | 36050 ft | 488 kts | 202° |
| 2026-04-27 16:12 | 11.20449 | -52.21234 | 36052 ft | 488 kts | 202° |
| 2026-04-27 16:13 | 11.11187 | -52.25416 | 36042 ft | 487 kts | 202° |
| 2026-04-27 16:13 | 11.01840 | -52.29634 | 36050 ft | 488 kts | 202° |
| 2026-04-27 16:14 | 10.89578 | -52.35163 | 36044 ft | 490 kts | 202° |
| 2026-04-27 16:15 | 10.77061 | -52.40803 | 36047 ft | 488 kts | 202° |
| 2026-04-27 16:16 | 10.64635 | -52.46396 | 36048 ft | 487 kts | 202° |
| 2026-04-27 16:17 | 10.52161 | -52.52003 | 36042 ft | 490 kts | 202° |
| 2026-04-27 16:18 | 10.39660 | -52.57621 | 36043 ft | 491 kts | 202° |
| 2026-04-27 16:19 | 10.33427 | -52.60420 | 36038 ft | 491 kts | 202° |
| 2026-04-27 16:20 | 10.20933 | -52.66026 | 36040 ft | 489 kts | 202° |
| 2026-04-27 16:21 | 10.11592 | -52.70215 | 36033 ft | 488 kts | 202° |
| 2026-04-27 16:22 | 9.99155 | -52.75787 | 36038 ft | 489 kts | 202° |
| 2026-04-27 16:22 | 9.89793 | -52.79978 | 36036 ft | 491 kts | 202° |
| 2026-04-27 16:23 | 9.80393 | -52.84183 | 36028 ft | 491 kts | 202° |
| 2026-04-27 16:24 | 9.74143 | -52.86979 | 36026 ft | 491 kts | 202° |
| 2026-04-27 16:25 | 9.62718 | -52.92087 | 36026 ft | 489 kts | 202° |
| 2026-04-27 16:26 | 9.50222 | -52.97667 | 36027 ft | 488 kts | 202° |
| 2026-04-27 16:27 | 9.37890 | -53.03602 | 36024 ft | 490 kts | 205° |
| 2026-04-27 16:28 | 9.22628 | -53.11530 | 36022 ft | 492 kts | 205° |
| 2026-04-27 16:29 | 9.07348 | -53.19395 | 36009 ft | 492 kts | 205° |
| 2026-04-27 16:30 | 8.95118 | -53.25686 | 36025 ft | 493 kts | 205° |
| 2026-04-27 16:31 | 8.79815 | -53.33552 | 36022 ft | 494 kts | 205° |
| 2026-04-27 16:32 | 8.70621 | -53.38275 | 36017 ft | 493 kts | 205° |
| 2026-04-27 16:33 | 8.61449 | -53.42983 | 36013 ft | 492 kts | 205° |
| 2026-04-27 16:33 | 8.55314 | -53.46130 | 36015 ft | 493 kts | 205° |
| 2026-04-27 16:34 | 8.49188 | -53.49272 | 36017 ft | 493 kts | 205° |
| 2026-04-27 16:34 | 8.43058 | -53.52415 | 36015 ft | 493 kts | 205° |
| 2026-04-27 16:35 | 8.36949 | -53.55546 | 36015 ft | 493 kts | 205° |
| 2026-04-27 16:36 | 8.27778 | -53.60245 | 36018 ft | 492 kts | 205° |
| 2026-04-27 16:36 | 8.21635 | -53.63391 | 36018 ft | 493 kts | 205° |
| 2026-04-27 16:37 | 8.15510 | -53.66526 | 36013 ft | 493 kts | 205° |
| 2026-04-27 16:37 | 8.09360 | -53.69674 | 36011 ft | 493 kts | 205° |
| 2026-04-27 16:38 | 8.03211 | -53.72819 | 36011 ft | 492 kts | 205° |
| 2026-04-27 16:38 | 7.97062 | -53.75964 | 36010 ft | 493 kts | 205° |
| 2026-04-27 16:39 | 7.90861 | -53.79134 | 36012 ft | 494 kts | 205° |
| 2026-04-27 16:39 | 7.84700 | -53.82282 | 36008 ft | 494 kts | 205° |
| 2026-04-27 16:40 | 7.79524 | -53.84927 | 36008 ft | 494 kts | 205° |
| 2026-04-27 16:40 | 7.73329 | -53.88091 | 36007 ft | 493 kts | 205° |
| 2026-04-27 16:41 | 7.67222 | -53.91209 | 36006 ft | 493 kts | 205° |
| 2026-04-27 16:41 | 7.61065 | -53.94352 | 36011 ft | 493 kts | 205° |
| 2026-04-27 16:42 | 7.54886 | -53.97506 | 36006 ft | 494 kts | 205° |
| 2026-04-27 16:42 | 7.48753 | -54.00642 | 36004 ft | 494 kts | 206° |
| 2026-04-27 16:43 | 7.42680 | -54.04012 | 36000 ft | 494 kts | 208° |
| 2026-04-27 16:43 | 7.36570 | -54.07524 | 36002 ft | 494 kts | 208° |
| 2026-04-27 16:44 | 7.30508 | -54.10977 | 36002 ft | 494 kts | 207° |
| 2026-04-27 16:44 | 7.24509 | -54.14362 | 35578 ft | 501 kts | 207° |
| 2026-04-27 16:44 | 7.21422 | -54.16097 | 35020 ft | 504 kts | 207° |
| 2026-04-27 16:45 | 7.18378 | -54.17809 | 34433 ft | 503 kts | 207° |
| 2026-04-27 16:45 | 7.15312 | -54.19534 | 33987 ft | 496 kts | 207° |
| 2026-04-27 16:45 | 7.12318 | -54.21219 | 33433 ft | 491 kts | 207° |
| 2026-04-27 16:45 | 7.09354 | -54.22888 | 32922 ft | 486 kts | 207° |
| 2026-04-27 16:46 | 7.06413 | -54.24542 | 32408 ft | 481 kts | 207° |
| 2026-04-27 16:46 | 7.03499 | -54.26182 | 31914 ft | 476 kts | 207° |
| 2026-04-27 16:46 | 7.00630 | -54.27796 | 31428 ft | 472 kts | 207° |
| 2026-04-27 16:46 | 6.97736 | -54.29423 | 30945 ft | 468 kts | 207° |
| 2026-04-27 16:47 | 6.94935 | -54.30997 | 30429 ft | 464 kts | 207° |
| 2026-04-27 16:47 | 6.92138 | -54.32569 | 29934 ft | 461 kts | 207° |
| 2026-04-27 16:47 | 6.89342 | -54.34141 | 29366 ft | 457 kts | 207° |
| 2026-04-27 16:47 | 6.86541 | -54.35715 | 28863 ft | 453 kts | 206° |
| 2026-04-27 16:48 | 6.83781 | -54.37267 | 28356 ft | 449 kts | 206° |
| 2026-04-27 16:48 | 6.81071 | -54.38789 | 27872 ft | 445 kts | 206° |
| 2026-04-27 16:48 | 6.78383 | -54.40299 | 27395 ft | 441 kts | 206° |
| 2026-04-27 16:49 | 6.73062 | -54.43288 | 26454 ft | 434 kts | 206° |
| 2026-04-27 16:49 | 6.70453 | -54.44753 | 25988 ft | 431 kts | 206° |
| 2026-04-27 16:49 | 6.67821 | -54.46230 | 25509 ft | 428 kts | 206° |
| 2026-04-27 16:49 | 6.65202 | -54.47701 | 25038 ft | 426 kts | 206° |
| 2026-04-27 16:50 | 6.62602 | -54.49160 | 24563 ft | 424 kts | 206° |
| 2026-04-27 16:50 | 6.60005 | -54.50617 | 24106 ft | 423 kts | 206° |
| 2026-04-27 16:50 | 6.57450 | -54.52051 | 23643 ft | 421 kts | 206° |
| 2026-04-27 16:50 | 6.54904 | -54.53479 | 23119 ft | 419 kts | 206° |
| 2026-04-27 16:51 | 6.52364 | -54.54904 | 22634 ft | 416 kts | 206° |
| 2026-04-27 16:51 | 6.50673 | -54.55853 | 22314 ft | 414 kts | 206° |
| 2026-04-27 16:51 | 6.48106 | -54.57293 | 21856 ft | 411 kts | 206° |
| 2026-04-27 16:51 | 6.45623 | -54.58686 | 21406 ft | 408 kts | 206° |
| 2026-04-27 16:52 | 6.43155 | -54.60070 | 20948 ft | 405 kts | 206° |
| 2026-04-27 16:52 | 6.40696 | -54.61449 | 20518 ft | 402 kts | 207° |
| 2026-04-27 16:52 | 6.38216 | -54.62839 | 20081 ft | 400 kts | 207° |
| 2026-04-27 16:52 | 6.35971 | -54.64098 | 19665 ft | 398 kts | 207° |
| 2026-04-27 16:53 | 6.33426 | -54.65525 | 19189 ft | 396 kts | 207° |
| 2026-04-27 16:53 | 6.31009 | -54.66879 | 18735 ft | 394 kts | 207° |
| 2026-04-27 16:53 | 6.28612 | -54.68222 | 18293 ft | 393 kts | 207° |
| 2026-04-27 16:53 | 6.26209 | -54.69569 | 17805 ft | 391 kts | 207° |
| 2026-04-27 16:54 | 6.23818 | -54.70909 | 17317 ft | 388 kts | 207° |
| 2026-04-27 16:54 | 6.21458 | -54.72232 | 16876 ft | 385 kts | 207° |
| 2026-04-27 16:54 | 6.19122 | -54.73541 | 16443 ft | 383 kts | 207° |
| 2026-04-27 16:54 | 6.16806 | -54.74839 | 16009 ft | 380 kts | 207° |
| 2026-04-27 16:55 | 6.14508 | -54.76126 | 15578 ft | 377 kts | 207° |
| 2026-04-27 16:55 | 6.12212 | -54.77412 | 15153 ft | 375 kts | 207° |
| 2026-04-27 16:55 | 6.09935 | -54.78688 | 14728 ft | 373 kts | 207° |
| 2026-04-27 16:55 | 6.07667 | -54.79958 | 14281 ft | 372 kts | 207° |
| 2026-04-27 16:56 | 6.05420 | -54.81216 | 13851 ft | 370 kts | 207° |
| 2026-04-27 16:56 | 6.03166 | -54.82478 | 13384 ft | 368 kts | 207° |
| 2026-04-27 16:56 | 6.00994 | -54.83828 | 12936 ft | 367 kts | 215° |
| 2026-04-27 16:56 | 5.99047 | -54.85536 | 12522 ft | 365 kts | 221° |
| 2026-04-27 16:57 | 5.97193 | -54.87261 | 12113 ft | 362 kts | 220° |
| 2026-04-27 16:57 | 5.95381 | -54.88898 | 11731 ft | 360 kts | 220° |
| 2026-04-27 16:57 | 5.93452 | -54.90621 | 11288 ft | 358 kts | 220° |
| 2026-04-27 16:57 | 5.91572 | -54.92295 | 10877 ft | 347 kts | 219° |
| 2026-04-27 16:58 | 5.89739 | -54.93927 | 10509 ft | 323 kts | 219° |
| 2026-04-27 16:58 | 5.88118 | -54.95370 | 10357 ft | 296 kts | 219° |
| 2026-04-27 16:58 | 5.86626 | -54.96697 | 10233 ft | 277 kts | 219° |
| 2026-04-27 16:58 | 5.85686 | -54.97531 | 10106 ft | 274 kts | 219° |
| 2026-04-27 16:59 | 5.84758 | -54.98354 | 9890 ft | 276 kts | 219° |
| 2026-04-27 16:59 | 5.83405 | -54.99552 | 9531 ft | 277 kts | 219° |
| 2026-04-27 17:00 | 5.81465 | -55.01272 | 9079 ft | 277 kts | 219° |
| 2026-04-27 17:00 | 5.79039 | -55.03424 | 8599 ft | 277 kts | 219° |
| 2026-04-27 17:00 | 5.77597 | -55.04705 | 8325 ft | 275 kts | 219° |
| 2026-04-27 17:01 | 5.76156 | -55.05981 | 8041 ft | 276 kts | 219° |
| 2026-04-27 17:01 | 5.74701 | -55.07271 | 7736 ft | 277 kts | 219° |
| 2026-04-27 17:01 | 5.73248 | -55.08562 | 7381 ft | 278 kts | 219° |
| 2026-04-27 17:01 | 5.71773 | -55.09872 | 7037 ft | 280 kts | 219° |
| 2026-04-27 17:02 | 5.70820 | -55.10717 | 6814 ft | 280 kts | 219° |
| 2026-04-27 17:02 | 5.69341 | -55.12030 | 6518 ft | 281 kts | 219° |
| 2026-04-27 17:02 | 5.67867 | -55.13340 | 6422 ft | 278 kts | 219° |
| 2026-04-27 17:02 | 5.66403 | -55.14637 | 6071 ft | 282 kts | 219° |
| 2026-04-27 17:03 | 5.64945 | -55.15928 | 5865 ft | 277 kts | 219° |
| 2026-04-27 17:03 | 5.63471 | -55.17237 | 5577 ft | 276 kts | 219° |
| 2026-04-27 17:03 | 5.62043 | -55.18505 | 5353 ft | 272 kts | 219° |
| 2026-04-27 17:03 | 5.60619 | -55.19770 | 5028 ft | 272 kts | 219° |
| 2026-04-27 17:04 | 5.59216 | -55.21015 | 4762 ft | 272 kts | 219° |
| 2026-04-27 17:04 | 5.57793 | -55.22277 | 4356 ft | 266 kts | 219° |
| 2026-04-27 17:04 | 5.56459 | -55.23462 | 4116 ft | 248 kts | 219° |
| 2026-04-27 17:04 | 5.55186 | -55.24591 | 3809 ft | 233 kts | 219° |
| 2026-04-27 17:05 | 5.53987 | -55.25655 | 3597 ft | 225 kts | 218° |
| 2026-04-27 17:05 | 5.52827 | -55.26686 | 3515 ft | 219 kts | 219° |
| 2026-04-27 17:05 | 5.51658 | -55.27720 | 3506 ft | 217 kts | 218° |
| 2026-04-27 17:05 | 5.50505 | -55.28739 | 3316 ft | 225 kts | 219° |
| 2026-04-27 17:06 | 5.49336 | -55.29777 | 3081 ft | 226 kts | 218° |
| 2026-04-27 17:06 | 5.48078 | -55.30710 | 2695 ft | 221 kts | 200° |
| 2026-04-27 17:06 | 5.46636 | -55.30850 | 2420 ft | 203 kts | 161° |
| 2026-04-27 17:06 | 5.45519 | -55.30111 | 2200 ft | 182 kts | 123° |
| 2026-04-27 17:07 | 5.45231 | -55.29004 | 2005 ft | 143 kts | 79° |
| 2026-04-27 17:07 | 5.45320 | -55.28029 | 2006 ft | 150 kts | 98° |
| 2026-04-27 17:07 | 5.44951 | -55.26958 | 2544 ft | 159 kts | 107° |
| 2026-04-27 17:07 | 5.44794 | -55.25828 | 3305 ft | 160 kts | 85° |
| 2026-04-27 17:08 | 5.45076 | -55.24709 | 3677 ft | 182 kts | 71° |
| 2026-04-27 17:08 | 5.45387 | -55.23461 | 3363 ft | 179 kts | 86° |
| 2026-04-27 17:08 | 5.45389 | -55.22278 | 3132 ft | 164 kts | 90° |
| 2026-04-27 17:08 | 5.45376 | -55.21111 | 2907 ft | 164 kts | 90° |
| 2026-04-27 17:09 | 5.45352 | -55.19940 | 2705 ft | 172 kts | 90° |
| 2026-04-27 17:09 | 5.45325 | -55.18723 | 2425 ft | 168 kts | 90° |
| 2026-04-27 17:09 | 5.45550 | -55.17636 | 2169 ft | 155 kts | 53° |
| 2026-04-27 17:09 | 5.46456 | -55.17091 | 2125 ft | 163 kts | 20° |
| 2026-04-27 17:10 | 5.47655 | -55.16917 | 2031 ft | 185 kts | 360° |
| 2026-04-27 17:10 | 5.48824 | -55.17459 | 1959 ft | 192 kts | 311° |
| 2026-04-27 17:10 | 5.49260 | -55.18720 | 2001 ft | 194 kts | 277° |
| 2026-04-27 17:10 | 5.49428 | -55.20057 | 1965 ft | 191 kts | 281° |
| 2026-04-27 17:11 | 5.49651 | -55.21410 | 1960 ft | 194 kts | 282° |
| 2026-04-27 17:11 | 5.50093 | -55.24079 | 1977 ft | 192 kts | 282° |
| 2026-04-27 17:11 | 5.50313 | -55.25402 | 1979 ft | 193 kts | 281° |
| 2026-04-27 17:12 | 5.50770 | -55.28123 | 1955 ft | 190 kts | 282° |
| 2026-04-27 17:12 | 5.50987 | -55.29428 | 1954 ft | 191 kts | 281° |
| 2026-04-27 17:12 | 5.51198 | -55.30705 | 1961 ft | 186 kts | 280° |
| 2026-04-27 17:13 | 5.51412 | -55.31985 | 1977 ft | 185 kts | 281° |
| 2026-04-27 17:13 | 5.51618 | -55.33290 | 1963 ft | 186 kts | 275° |
| 2026-04-27 17:13 | 5.51496 | -55.34571 | 2020 ft | 195 kts | 252° |
| 2026-04-27 17:13 | 5.50790 | -55.35800 | 2014 ft | 212 kts | 225° |
| 2026-04-27 17:14 | 5.49619 | -55.36634 | 1954 ft | 199 kts | 198° |
| 2026-04-27 17:14 | 5.48355 | -55.36824 | 1950 ft | 174 kts | 171° |
| 2026-04-27 17:14 | 5.47578 | -55.36645 | 1961 ft | 170 kts | 153° |
| 2026-04-27 17:14 | 5.46525 | -55.36022 | 1971 ft | 179 kts | 136° |
| 2026-04-27 17:15 | 5.45752 | -55.35112 | 1959 ft | 167 kts | 111° |
| 2026-04-27 17:15 | 5.45542 | -55.34012 | 1987 ft | 161 kts | 95° |
| 2026-04-27 17:15 | 5.45379 | -55.32839 | 2022 ft | 179 kts | 97° |
| 2026-04-27 17:15 | 5.45247 | -55.31582 | 1984 ft | 178 kts | 92° |
| 2026-04-27 17:16 | 5.45219 | -55.30363 | 1976 ft | 170 kts | 90° |
| 2026-04-27 17:16 | 5.45222 | -55.29177 | 1774 ft | 171 kts | 88° |
| 2026-04-27 17:16 | 5.45229 | -55.28018 | 1554 ft | 154 kts | 89° |
| 2026-04-27 17:16 | 5.45237 | -55.26987 | 1332 ft | 136 kts | 89° |
| 2026-04-27 17:17 | 5.45240 | -55.26101 | 1207 ft | 128 kts | 88° |
| 2026-04-27 17:17 | 5.45247 | -55.25141 | 1015 ft | 146 kts | 89° |
| 2026-04-27 17:17 | 5.45274 | -55.24094 | 856 ft | 152 kts | 89° |
| 2026-04-27 17:18 | 5.45269 | -55.21907 | 386 ft | 150 kts | 89° |
| 2026-04-27 17:18 | 5.45275 | -55.20918 | 125 ft | 134 kts | 89° |
| 2026-04-27 17:18 | 5.45288 | -55.20024 | 59 ft | 120 kts | 88° |
| 2026-04-27 17:18 | 5.45282 | -55.19362 | 63 ft | 68 kts | 90° |
| 2026-04-27 17:19 | 5.45289 | -55.19041 | 61 ft | 36 kts | 92° |
| 2026-04-27 17:19 | 5.45277 | -55.18833 | 58 ft | 11 kts | 104° |
| 2026-04-27 17:19 | 5.45280 | -55.18817 | 55 ft | 1 kts | 62° |
| 2026-04-27 17:19 | 5.45284 | -55.18814 | 53 ft | 0 kts | 39° |
| 2026-04-27 17:20 | 5.45255 | -55.18821 | 53 ft | 10 kts | 332° |
| 2026-04-27 17:20 | 5.45265 | -55.18837 | 54 ft | 5 kts | 302° |
| 2026-04-27 17:20 | 5.45284 | -55.18923 | 58 ft | 24 kts | 273° |
| 2026-04-27 17:20 | 5.45287 | -55.19060 | 60 ft | 19 kts | 269° |
| 2026-04-27 17:21 | 5.45287 | -55.19193 | 61 ft | 19 kts | 270° |
| 2026-04-27 17:21 | 5.45285 | -55.19327 | 59 ft | 19 kts | 268° |
| 2026-04-27 17:21 | 5.45281 | -55.19462 | 65 ft | 19 kts | 268° |
| 2026-04-27 17:21 | 5.45283 | -55.19587 | 63 ft | 15 kts | 269° |
| 2026-04-27 17:22 | 5.45286 | -55.19678 | 61 ft | 14 kts | 287° |
| 2026-04-27 17:22 | 5.45360 | -55.19730 | 65 ft | 14 kts | 349° |
| 2026-04-27 17:22 | 5.45403 | -55.19731 | 64 ft | 0 kts | 360° |
| 2026-04-27 17:22 | 5.45417 | -55.19737 | 67 ft | 9 kts | 334° |
| 2026-04-27 17:23 | 5.45439 | -55.19779 | 60 ft | 8 kts | 291° |
| 2026-04-27 17:23 | 5.45483 | -55.19800 | 64 ft | 8 kts | 357° |
| 2026-04-27 17:23 | 5.45498 | -55.19801 | 63 ft | 2 kts | 357° |
| 2026-04-27 17:23 | 5.45512 | -55.19802 | 62 ft | 1 kts | 357° |